<?xml version="1.0"?>
<gpx xmlns="http://www.topografix.com/GPX/1/1" xmlns:xsi="http://www.w3.org/2001/XMLSchema-instance" xmlns:wptx1="http://www.garmin.com/xmlschemas/WaypointExtension/v1" xmlns:gpxtrx="http://www.garmin.com/xmlschemas/GpxExtensions/v3" xmlns:gpxtpx="http://www.garmin.com/xmlschemas/TrackPointExtension/v1" xmlns:gpxx="http://www.garmin.com/xmlschemas/GpxExtensions/v3" xmlns:trp="http://www.garmin.com/xmlschemas/TripExtensions/v1" xmlns:adv="http://www.garmin.com/xmlschemas/AdventuresExtensions/v1" xmlns:prs="http://www.garmin.com/xmlschemas/PressureExtension/v1" creator="Garmin Desktop App" version="1.1" xsi:schemaLocation="http://www.topografix.com/GPX/1/1 http://www.topografix.com/GPX/1/1/gpx.xsd http://www.garmin.com/xmlschemas/WaypointExtension/v1 http://www8.garmin.com/xmlschemas/WaypointExtensionv1.xsd http://www.garmin.com/xmlschemas/TrackPointExtension/v1 http://www.garmin.com/xmlschemas/TrackPointExtensionv1.xsd http://www.garmin.com/xmlschemas/GpxExtensions/v3 http://www8.garmin.com/xmlschemas/GpxExtensionsv3.xsd http://www.garmin.com/xmlschemas/ActivityExtension/v1 http://www8.garmin.com/xmlschemas/ActivityExtensionv1.xsd http://www.garmin.com/xmlschemas/AdventuresExtensions/v1 http://www8.garmin.com/xmlschemas/AdventuresExtensionv1.xsd http://www.garmin.com/xmlschemas/PressureExtension/v1 http://www.garmin.com/xmlschemas/PressureExtensionv1.xsd http://www.garmin.com/xmlschemas/TripExtensions/v1 http://www.garmin.com/xmlschemas/TripExtensionsv1.xsd">

  <metadata>
    <link href="http://www.garmin.com">
      <text>Garmin International</text>
    </link>
    <time>2013-04-20T15:07:46Z</time>
    <bounds maxlat="47.673193775117397" maxlon="11.917894100770354" minlat="47.662429483607411" minlon="11.889793267473578"/>
  </metadata>

  <trk>
    <name>Benzingspitze 2013.04.20</name>
    <extensions>
      <gpxx:TrackExtension>
        <gpxx:DisplayColor>Red</gpxx:DisplayColor>
      </gpxx:TrackExtension>
    </extensions>
    <trkseg>
      <trkpt lat="47.665481418371201" lon="11.889793267473578">
        <ele>1053.742431640625</ele>
        <time>2013-04-20T11:02:50Z</time>
      </trkpt>
      <trkpt lat="47.665481502190232" lon="11.889793518930674">
        <ele>1053.742431640625</ele>
        <time>2013-04-20T11:02:52Z</time>
      </trkpt>
      <trkpt lat="47.665496086701751" lon="11.889846157282591">
        <ele>1056.1455078125</ele>
        <time>2013-04-20T11:03:44Z</time>
      </trkpt>
      <trkpt lat="47.665509162470698" lon="11.889860657975078">
        <ele>1056.1455078125</ele>
        <time>2013-04-20T11:03:46Z</time>
      </trkpt>
      <trkpt lat="47.665524920448661" lon="11.890061572194099">
        <ele>1057.10693359375</ele>
        <time>2013-04-20T11:03:58Z</time>
      </trkpt>
      <trkpt lat="47.665532128885388" lon="11.890139942988753">
        <ele>1059.99072265625</ele>
        <time>2013-04-20T11:04:34Z</time>
      </trkpt>
      <trkpt lat="47.665559034794569" lon="11.890277825295925">
        <ele>1062.874755859375</ele>
        <time>2013-04-20T11:04:46Z</time>
      </trkpt>
      <trkpt lat="47.66558401286602" lon="11.890399781987071">
        <ele>1064.79736328125</ele>
        <time>2013-04-20T11:04:58Z</time>
      </trkpt>
      <trkpt lat="47.665561884641647" lon="11.890561720356345">
        <ele>1068.162109375</ele>
        <time>2013-04-20T11:05:10Z</time>
      </trkpt>
      <trkpt lat="47.665496924892068" lon="11.890805214643478">
        <ele>1072.00732421875</ele>
        <time>2013-04-20T11:05:30Z</time>
      </trkpt>
      <trkpt lat="47.665424169972539" lon="11.891007553786039">
        <ele>1073.449462890625</ele>
        <time>2013-04-20T11:05:46Z</time>
      </trkpt>
      <trkpt lat="47.665378069505095" lon="11.891160691156983">
        <ele>1075.8525390625</ele>
        <time>2013-04-20T11:05:58Z</time>
      </trkpt>
      <trkpt lat="47.665320318192244" lon="11.891356240957975">
        <ele>1079.217041015625</ele>
        <time>2013-04-20T11:06:14Z</time>
      </trkpt>
      <trkpt lat="47.665251083672047" lon="11.891504852101207">
        <ele>1082.581787109375</ele>
        <time>2013-04-20T11:06:29Z</time>
      </trkpt>
      <trkpt lat="47.665212191641331" lon="11.891634771600366">
        <ele>1085.946533203125</ele>
        <time>2013-04-20T11:06:43Z</time>
      </trkpt>
      <trkpt lat="47.665205402299762" lon="11.891648853197694">
        <ele>1086.42724609375</ele>
        <time>2013-04-20T11:06:57Z</time>
      </trkpt>
      <trkpt lat="47.665197942405939" lon="11.891684560105205">
        <ele>1088.349853515625</ele>
        <time>2013-04-20T11:07:16Z</time>
      </trkpt>
      <trkpt lat="47.665176149457693" lon="11.891754884272814">
        <ele>1091.233642578125</ele>
        <time>2013-04-20T11:07:26Z</time>
      </trkpt>
      <trkpt lat="47.665193416178226" lon="11.891858316957951">
        <ele>1094.59814453125</ele>
        <time>2013-04-20T11:07:39Z</time>
      </trkpt>
      <trkpt lat="47.66521017998457" lon="11.891941633075476">
        <ele>1096.52099609375</ele>
        <time>2013-04-20T11:07:53Z</time>
      </trkpt>
      <trkpt lat="47.665223674848676" lon="11.89195797778666">
        <ele>1097.00146484375</ele>
        <time>2013-04-20T11:08:05Z</time>
      </trkpt>
      <trkpt lat="47.665187548846006" lon="11.892056884244084">
        <ele>1099.885498046875</ele>
        <time>2013-04-20T11:08:13Z</time>
      </trkpt>
      <trkpt lat="47.665147399529815" lon="11.892175152897835">
        <ele>1103.250244140625</ele>
        <time>2013-04-20T11:08:23Z</time>
      </trkpt>
      <trkpt lat="47.665145471692085" lon="11.892185965552926">
        <ele>1103.250244140625</ele>
        <time>2013-04-20T11:08:24Z</time>
      </trkpt>
      <trkpt lat="47.665101801976562" lon="11.892288811504841">
        <ele>1106.134033203125</ele>
        <time>2013-04-20T11:08:35Z</time>
      </trkpt>
      <trkpt lat="47.664939779788256" lon="11.892384700477123">
        <ele>1108.537353515625</ele>
        <time>2013-04-20T11:08:48Z</time>
      </trkpt>
      <trkpt lat="47.664899546653032" lon="11.892452761530876">
        <ele>1111.42138671875</ele>
        <time>2013-04-20T11:08:56Z</time>
      </trkpt>
      <trkpt lat="47.66485788859427" lon="11.892495509237051">
        <ele>1113.343994140625</ele>
        <time>2013-04-20T11:09:04Z</time>
      </trkpt>
      <trkpt lat="47.664816984906793" lon="11.892589386552572">
        <ele>1117.189453125</ele>
        <time>2013-04-20T11:09:17Z</time>
      </trkpt>
      <trkpt lat="47.664754120633006" lon="11.892615705728531">
        <ele>1120.0732421875</ele>
        <time>2013-04-20T11:09:28Z</time>
      </trkpt>
      <trkpt lat="47.664680359885097" lon="11.892699524760246">
        <ele>1122.957275390625</ele>
        <time>2013-04-20T11:09:42Z</time>
      </trkpt>
      <trkpt lat="47.664628392085433" lon="11.892781667411327">
        <ele>1126.32177734375</ele>
        <time>2013-04-20T11:09:54Z</time>
      </trkpt>
      <trkpt lat="47.66456376761198" lon="11.892925417050719">
        <ele>1129.20556640625</ele>
        <time>2013-04-20T11:10:10Z</time>
      </trkpt>
      <trkpt lat="47.664525462314487" lon="11.89305349253118">
        <ele>1133.53173828125</ele>
        <time>2013-04-20T11:10:25Z</time>
      </trkpt>
      <trkpt lat="47.66452319920063" lon="11.893062377348542">
        <ele>1133.53173828125</ele>
        <time>2013-04-20T11:10:26Z</time>
      </trkpt>
      <trkpt lat="47.664494030177593" lon="11.893196739256382">
        <ele>1136.896240234375</ele>
        <time>2013-04-20T11:10:41Z</time>
      </trkpt>
      <trkpt lat="47.66446016728878" lon="11.893352307379246">
        <ele>1140.741455078125</ele>
        <time>2013-04-20T11:10:58Z</time>
      </trkpt>
      <trkpt lat="47.6644591614604" lon="11.893362365663052">
        <ele>1140.741455078125</ele>
        <time>2013-04-20T11:10:59Z</time>
      </trkpt>
      <trkpt lat="47.664440469816327" lon="11.893488429486752">
        <ele>1144.586669921875</ele>
        <time>2013-04-20T11:11:14Z</time>
      </trkpt>
      <trkpt lat="47.664413480088115" lon="11.893584150820971">
        <ele>1148.43212890625</ele>
        <time>2013-04-20T11:11:28Z</time>
      </trkpt>
      <trkpt lat="47.664395458996296" lon="11.893651373684406">
        <ele>1150.35498046875</ele>
        <time>2013-04-20T11:11:41Z</time>
      </trkpt>
      <trkpt lat="47.664372660219669" lon="11.893681799992919">
        <ele>1152.27734375</ele>
        <time>2013-04-20T11:11:53Z</time>
      </trkpt>
      <trkpt lat="47.664358243346214" lon="11.893759164959192">
        <ele>1155.64208984375</ele>
        <time>2013-04-20T11:12:04Z</time>
      </trkpt>
      <trkpt lat="47.66436000354588" lon="11.893852958455682">
        <ele>1159.4873046875</ele>
        <time>2013-04-20T11:12:20Z</time>
      </trkpt>
      <trkpt lat="47.664351956918836" lon="11.893879529088736">
        <ele>1160.448486328125</ele>
        <time>2013-04-20T11:12:24Z</time>
      </trkpt>
      <trkpt lat="47.664328990504146" lon="11.893962509930134">
        <ele>1162.851806640625</ele>
        <time>2013-04-20T11:12:38Z</time>
      </trkpt>
      <trkpt lat="47.664322033524513" lon="11.893998216837645">
        <ele>1164.774658203125</ele>
        <time>2013-04-20T11:12:44Z</time>
      </trkpt>
      <trkpt lat="47.664307616651058" lon="11.894077006727457">
        <ele>1168.13916015625</ele>
        <time>2013-04-20T11:12:56Z</time>
      </trkpt>
      <trkpt lat="47.664299989119172" lon="11.894109109416604">
        <ele>1169.1005859375</ele>
        <time>2013-04-20T11:13:09Z</time>
      </trkpt>
      <trkpt lat="47.664281381294131" lon="11.894185217097402">
        <ele>1172.465087890625</ele>
        <time>2013-04-20T11:13:20Z</time>
      </trkpt>
      <trkpt lat="47.664262605831027" lon="11.894249254837632">
        <ele>1175.82958984375</ele>
        <time>2013-04-20T11:13:31Z</time>
      </trkpt>
      <trkpt lat="47.664240896701813" lon="11.894332570955157">
        <ele>1179.194091796875</ele>
        <time>2013-04-20T11:13:45Z</time>
      </trkpt>
      <trkpt lat="47.66421340405941" lon="11.894399039447308">
        <ele>1182.078369140625</ele>
        <time>2013-04-20T11:13:57Z</time>
      </trkpt>
      <trkpt lat="47.66419337131083" lon="11.894432315602899">
        <ele>1183.03955078125</ele>
        <time>2013-04-20T11:14:02Z</time>
      </trkpt>
      <trkpt lat="47.66417233273387" lon="11.894470704719424">
        <ele>1184.0009765625</ele>
        <time>2013-04-20T11:14:17Z</time>
      </trkpt>
      <trkpt lat="47.664191694930196" lon="11.89457749016583">
        <ele>1186.884765625</ele>
        <time>2013-04-20T11:14:27Z</time>
      </trkpt>
      <trkpt lat="47.664202507585287" lon="11.894695172086358">
        <ele>1190.24951171875</ele>
        <time>2013-04-20T11:14:38Z</time>
      </trkpt>
      <trkpt lat="47.664210805669427" lon="11.894810674712062">
        <ele>1193.614013671875</ele>
        <time>2013-04-20T11:14:50Z</time>
      </trkpt>
      <trkpt lat="47.664223210886121" lon="11.89487555064261">
        <ele>1195.53662109375</ele>
        <time>2013-04-20T11:14:57Z</time>
      </trkpt>
      <trkpt lat="47.664269562810659" lon="11.894932966679335">
        <ele>1197.940185546875</ele>
        <time>2013-04-20T11:15:07Z</time>
      </trkpt>
      <trkpt lat="47.664377773180604" lon="11.894957860931754">
        <ele>1201.3046875</ele>
        <time>2013-04-20T11:15:22Z</time>
      </trkpt>
      <trkpt lat="47.664385233074427" lon="11.894960291683674">
        <ele>1201.3046875</ele>
        <time>2013-04-20T11:15:23Z</time>
      </trkpt>
      <trkpt lat="47.664475589990616" lon="11.895024748519063">
        <ele>1204.669189453125</ele>
        <time>2013-04-20T11:15:37Z</time>
      </trkpt>
      <trkpt lat="47.66458036378026" lon="11.895093061029911">
        <ele>1208.514404296875</ele>
        <time>2013-04-20T11:15:52Z</time>
      </trkpt>
      <trkpt lat="47.664663596078753" lon="11.895151315256953">
        <ele>1210.43701171875</ele>
        <time>2013-04-20T11:16:04Z</time>
      </trkpt>
      <trkpt lat="47.664733836427331" lon="11.895213676616549">
        <ele>1212.35986328125</ele>
        <time>2013-04-20T11:16:17Z</time>
      </trkpt>
      <trkpt lat="47.664741547778249" lon="11.895244102925062">
        <ele>1212.35986328125</ele>
        <time>2013-04-20T11:16:27Z</time>
      </trkpt>
      <trkpt lat="47.664836766198277" lon="11.895404197275639">
        <ele>1214.282470703125</ele>
        <time>2013-04-20T11:16:42Z</time>
      </trkpt>
      <trkpt lat="47.664848165586591" lon="11.895411238074303">
        <ele>1213.3212890625</ele>
        <time>2013-04-20T11:16:51Z</time>
      </trkpt>
      <trkpt lat="47.664851602166891" lon="11.895425738766789">
        <ele>1214.76318359375</ele>
        <time>2013-04-20T11:17:40Z</time>
      </trkpt>
      <trkpt lat="47.66486182808876" lon="11.895445687696338">
        <ele>1216.205078125</ele>
        <time>2013-04-20T11:18:29Z</time>
      </trkpt>
      <trkpt lat="47.664876747876406" lon="11.895623384043574">
        <ele>1219.56982421875</ele>
        <time>2013-04-20T11:18:44Z</time>
      </trkpt>
      <trkpt lat="47.664857972413301" lon="11.89575020223856">
        <ele>1222.45361328125</ele>
        <time>2013-04-20T11:18:55Z</time>
      </trkpt>
      <trkpt lat="47.664848668500781" lon="11.89586796797812">
        <ele>1225.818115234375</ele>
        <time>2013-04-20T11:19:07Z</time>
      </trkpt>
      <trkpt lat="47.664864342659712" lon="11.895984224975109">
        <ele>1229.66357421875</ele>
        <time>2013-04-20T11:19:20Z</time>
      </trkpt>
      <trkpt lat="47.664854368194938" lon="11.896111210808158">
        <ele>1232.547607421875</ele>
        <time>2013-04-20T11:19:34Z</time>
      </trkpt>
      <trkpt lat="47.664848668500781" lon="11.896186228841543">
        <ele>1234.950927734375</ele>
        <time>2013-04-20T11:19:44Z</time>
      </trkpt>
      <trkpt lat="47.664845651015639" lon="11.896227216348052">
        <ele>1236.873291015625</ele>
        <time>2013-04-20T11:19:49Z</time>
      </trkpt>
      <trkpt lat="47.664864929392934" lon="11.896339114755392">
        <ele>1240.238037109375</ele>
        <time>2013-04-20T11:20:03Z</time>
      </trkpt>
      <trkpt lat="47.664865264669061" lon="11.896346909925342">
        <ele>1240.238037109375</ele>
        <time>2013-04-20T11:20:04Z</time>
      </trkpt>
      <trkpt lat="47.664837185293436" lon="11.896459311246872">
        <ele>1243.6025390625</ele>
        <time>2013-04-20T11:20:17Z</time>
      </trkpt>
      <trkpt lat="47.66480902209878" lon="11.896575065329671">
        <ele>1246.96728515625</ele>
        <time>2013-04-20T11:20:29Z</time>
      </trkpt>
      <trkpt lat="47.664762334898114" lon="11.89664538949728">
        <ele>1250.33203125</ele>
        <time>2013-04-20T11:20:42Z</time>
      </trkpt>
      <trkpt lat="47.66473769210279" lon="11.896704817190766">
        <ele>1252.25439453125</ele>
        <time>2013-04-20T11:20:50Z</time>
      </trkpt>
      <trkpt lat="47.664730902761221" lon="11.896720491349697">
        <ele>1253.2158203125</ele>
        <time>2013-04-20T11:21:03Z</time>
      </trkpt>
      <trkpt lat="47.664703326299787" lon="11.896795090287924">
        <ele>1256.099609375</ele>
        <time>2013-04-20T11:21:13Z</time>
      </trkpt>
      <trkpt lat="47.664678934961557" lon="11.896907156333327">
        <ele>1258.983642578125</ele>
        <time>2013-04-20T11:21:25Z</time>
      </trkpt>
      <trkpt lat="47.664634510874748" lon="11.896997932344675">
        <ele>1262.8291015625</ele>
        <time>2013-04-20T11:21:37Z</time>
      </trkpt>
      <trkpt lat="47.66461405903101" lon="11.897097257897258">
        <ele>1266.193603515625</ele>
        <time>2013-04-20T11:21:48Z</time>
      </trkpt>
      <trkpt lat="47.66457156278193" lon="11.897210581228137">
        <ele>1269.558349609375</ele>
        <time>2013-04-20T11:22:03Z</time>
      </trkpt>
      <trkpt lat="47.664533257484436" lon="11.897285850718617">
        <ele>1272.442138671875</ele>
        <time>2013-04-20T11:22:13Z</time>
      </trkpt>
      <trkpt lat="47.664485396817327" lon="11.897418033331633">
        <ele>1275.806640625</ele>
        <time>2013-04-20T11:22:27Z</time>
      </trkpt>
      <trkpt lat="47.664436278864741" lon="11.897534625604749">
        <ele>1278.69091796875</ele>
        <time>2013-04-20T11:22:40Z</time>
      </trkpt>
      <trkpt lat="47.66436436213553" lon="11.897658845409751">
        <ele>1282.055419921875</ele>
        <time>2013-04-20T11:22:55Z</time>
      </trkpt>
      <trkpt lat="47.664292445406318" lon="11.897813156247139">
        <ele>1285.419921875</ele>
        <time>2013-04-20T11:23:11Z</time>
      </trkpt>
      <trkpt lat="47.664241148158908" lon="11.897884234786034">
        <ele>1286.38134765625</ele>
        <time>2013-04-20T11:23:32Z</time>
      </trkpt>
      <trkpt lat="47.664223797619343" lon="11.897913403809071">
        <ele>1286.86181640625</ele>
        <time>2013-04-20T11:23:42Z</time>
      </trkpt>
      <trkpt lat="47.664253050461411" lon="11.898073498159647">
        <ele>1288.78466796875</ele>
        <time>2013-04-20T11:23:55Z</time>
      </trkpt>
      <trkpt lat="47.664283141493797" lon="11.898171817883849">
        <ele>1292.1494140625</ele>
        <time>2013-04-20T11:24:06Z</time>
      </trkpt>
      <trkpt lat="47.664364278316498" lon="11.898237364366651">
        <ele>1294.552490234375</ele>
        <time>2013-04-20T11:24:21Z</time>
      </trkpt>
      <trkpt lat="47.664440888911486" lon="11.898370804265141">
        <ele>1295.99462890625</ele>
        <time>2013-04-20T11:24:36Z</time>
      </trkpt>
      <trkpt lat="47.664484810084105" lon="11.898526707664132">
        <ele>1299.359130859375</ele>
        <time>2013-04-20T11:24:52Z</time>
      </trkpt>
      <trkpt lat="47.664486318826675" lon="11.89857104793191">
        <ele>1300.320556640625</ele>
        <time>2013-04-20T11:24:57Z</time>
      </trkpt>
      <trkpt lat="47.664506267756224" lon="11.898661907762289">
        <ele>1303.68505859375</ele>
        <time>2013-04-20T11:25:10Z</time>
      </trkpt>
      <trkpt lat="47.66451196745038" lon="11.898741787299514">
        <ele>1306.56884765625</ele>
        <time>2013-04-20T11:25:22Z</time>
      </trkpt>
      <trkpt lat="47.664500065147877" lon="11.89878998324275">
        <ele>1307.049560546875</ele>
        <time>2013-04-20T11:25:31Z</time>
      </trkpt>
      <trkpt lat="47.664493527263403" lon="11.898781349882483">
        <ele>1308.49169921875</ele>
        <time>2013-04-20T11:25:40Z</time>
      </trkpt>
      <trkpt lat="47.664521690458059" lon="11.898762490600348">
        <ele>1309.93359375</ele>
        <time>2013-04-20T11:26:07Z</time>
      </trkpt>
      <trkpt lat="47.664571730419993" lon="11.898798868060112">
        <ele>1312.817626953125</ele>
        <time>2013-04-20T11:26:19Z</time>
      </trkpt>
      <trkpt lat="47.664647502824664" lon="11.898864917457104">
        <ele>1316.18212890625</ele>
        <time>2013-04-20T11:26:33Z</time>
      </trkpt>
      <trkpt lat="47.664660327136517" lon="11.898880004882812">
        <ele>1317.1435546875</ele>
        <time>2013-04-20T11:26:35Z</time>
      </trkpt>
      <trkpt lat="47.664710283279419" lon="11.898998189717531">
        <ele>1320.02734375</ele>
        <time>2013-04-20T11:26:49Z</time>
      </trkpt>
      <trkpt lat="47.664728220552206" lon="11.899101203307509">
        <ele>1323.87255859375</ele>
        <time>2013-04-20T11:27:02Z</time>
      </trkpt>
      <trkpt lat="47.664723442867398" lon="11.899217711761594">
        <ele>1326.7568359375</ele>
        <time>2013-04-20T11:27:16Z</time>
      </trkpt>
      <trkpt lat="47.664720844477415" lon="11.899318629875779">
        <ele>1330.121337890625</ele>
        <time>2013-04-20T11:27:28Z</time>
      </trkpt>
      <trkpt lat="47.664709612727165" lon="11.899396413937211">
        <ele>1331.563232421875</ele>
        <time>2013-04-20T11:27:43Z</time>
      </trkpt>
      <trkpt lat="47.664702152833343" lon="11.899422397837043">
        <ele>1332.524658203125</ele>
        <time>2013-04-20T11:27:48Z</time>
      </trkpt>
      <trkpt lat="47.664667787030339" lon="11.899562124162912">
        <ele>1335.88916015625</ele>
        <time>2013-04-20T11:28:02Z</time>
      </trkpt>
      <trkpt lat="47.664645910263062" lon="11.899669663980603">
        <ele>1338.773193359375</ele>
        <time>2013-04-20T11:28:14Z</time>
      </trkpt>
      <trkpt lat="47.664635349065065" lon="11.899801846593618">
        <ele>1341.6572265625</ele>
        <time>2013-04-20T11:28:29Z</time>
      </trkpt>
      <trkpt lat="47.664616405963898" lon="11.89993335865438">
        <ele>1345.021728515625</ele>
        <time>2013-04-20T11:28:44Z</time>
      </trkpt>
      <trkpt lat="47.664608778432012" lon="11.899999156594276">
        <ele>1346.4638671875</ele>
        <time>2013-04-20T11:28:54Z</time>
      </trkpt>
      <trkpt lat="47.664597881957889" lon="11.900103678926826">
        <ele>1347.90576171875</ele>
        <time>2013-04-20T11:29:07Z</time>
      </trkpt>
      <trkpt lat="47.664593020454049" lon="11.900175344198942">
        <ele>1350.78955078125</ele>
        <time>2013-04-20T11:29:27Z</time>
      </trkpt>
      <trkpt lat="47.664576340466738" lon="11.900342898443341">
        <ele>1354.634765625</ele>
        <time>2013-04-20T11:29:45Z</time>
      </trkpt>
      <trkpt lat="47.664563013240695" lon="11.90044105052948">
        <ele>1355.59619140625</ele>
        <time>2013-04-20T11:29:59Z</time>
      </trkpt>
      <trkpt lat="47.664555469527841" lon="11.900530820712447">
        <ele>1357.038330078125</ele>
        <time>2013-04-20T11:30:11Z</time>
      </trkpt>
      <trkpt lat="47.664557229727507" lon="11.90062964335084">
        <ele>1360.40283203125</ele>
        <time>2013-04-20T11:30:23Z</time>
      </trkpt>
      <trkpt lat="47.664559157565236" lon="11.900668116286397">
        <ele>1360.883544921875</ele>
        <time>2013-04-20T11:30:36Z</time>
      </trkpt>
      <trkpt lat="47.664562007412314" lon="11.900743134319782">
        <ele>1362.80615234375</ele>
        <time>2013-04-20T11:30:51Z</time>
      </trkpt>
      <trkpt lat="47.664566617459059" lon="11.9008251093328">
        <ele>1364.728759765625</ele>
        <time>2013-04-20T11:31:03Z</time>
      </trkpt>
      <trkpt lat="47.664572484791279" lon="11.900969110429287">
        <ele>1368.09326171875</ele>
        <time>2013-04-20T11:31:19Z</time>
      </trkpt>
      <trkpt lat="47.664567958563566" lon="11.901027532294393">
        <ele>1369.0546875</ele>
        <time>2013-04-20T11:31:41Z</time>
      </trkpt>
      <trkpt lat="47.664572317153215" lon="11.901048989966512">
        <ele>1369.535400390625</ele>
        <time>2013-04-20T11:31:50Z</time>
      </trkpt>
      <trkpt lat="47.664578603580594" lon="11.901062065735459">
        <ele>1369.535400390625</ele>
        <time>2013-04-20T11:32:36Z</time>
      </trkpt>
      <trkpt lat="47.664559744298458" lon="11.901129959151149">
        <ele>1370.015869140625</ele>
        <time>2013-04-20T11:32:45Z</time>
      </trkpt>
      <trkpt lat="47.664526384323835" lon="11.901198690757155">
        <ele>1370.49658203125</ele>
        <time>2013-04-20T11:32:56Z</time>
      </trkpt>
      <trkpt lat="47.664498975500464" lon="11.901262309402227">
        <ele>1370.977294921875</ele>
        <time>2013-04-20T11:33:07Z</time>
      </trkpt>
      <trkpt lat="47.664483552798629" lon="11.901287622749805">
        <ele>1371.457763671875</ele>
        <time>2013-04-20T11:33:16Z</time>
      </trkpt>
      <trkpt lat="47.66441959887743" lon="11.901377560570836">
        <ele>1370.977294921875</ele>
        <time>2013-04-20T11:33:28Z</time>
      </trkpt>
      <trkpt lat="47.664388166740537" lon="11.901467330753803">
        <ele>1373.861328125</ele>
        <time>2013-04-20T11:33:39Z</time>
      </trkpt>
      <trkpt lat="47.664391603320837" lon="11.901499768719077">
        <ele>1374.82275390625</ele>
        <time>2013-04-20T11:33:46Z</time>
      </trkpt>
      <trkpt lat="47.664401410147548" lon="11.901510246098042">
        <ele>1375.30322265625</ele>
        <time>2013-04-20T11:33:55Z</time>
      </trkpt>
      <trkpt lat="47.664393950253725" lon="11.90155609510839">
        <ele>1376.2646484375</ele>
        <time>2013-04-20T11:34:04Z</time>
      </trkpt>
      <trkpt lat="47.664407780393958" lon="11.90159616060555">
        <ele>1378.66796875</ele>
        <time>2013-04-20T11:34:19Z</time>
      </trkpt>
      <trkpt lat="47.66442202962935" lon="11.901597250252962">
        <ele>1379.1484375</ele>
        <time>2013-04-20T11:34:29Z</time>
      </trkpt>
      <trkpt lat="47.664421275258064" lon="11.901647541671991">
        <ele>1380.590576171875</ele>
        <time>2013-04-20T11:34:37Z</time>
      </trkpt>
      <trkpt lat="47.664422616362572" lon="11.901683500036597">
        <ele>1382.51318359375</ele>
        <time>2013-04-20T11:34:47Z</time>
      </trkpt>
      <trkpt lat="47.664444074034691" lon="11.901709148660302">
        <ele>1382.99365234375</ele>
        <time>2013-04-20T11:34:57Z</time>
      </trkpt>
      <trkpt lat="47.664424628019333" lon="11.901744436472654">
        <ele>1383.955078125</ele>
        <time>2013-04-20T11:35:07Z</time>
      </trkpt>
      <trkpt lat="47.66441180370748" lon="11.901767989620566">
        <ele>1384.435791015625</ele>
        <time>2013-04-20T11:35:33Z</time>
      </trkpt>
      <trkpt lat="47.664405517280102" lon="11.901784418150783">
        <ele>1385.39697265625</ele>
        <time>2013-04-20T11:35:48Z</time>
      </trkpt>
      <trkpt lat="47.664397051557899" lon="11.901821717619896">
        <ele>1385.877685546875</ele>
        <time>2013-04-20T11:35:57Z</time>
      </trkpt>
      <trkpt lat="47.664382550865412" lon="11.901858011260629">
        <ele>1387.319580078125</ele>
        <time>2013-04-20T11:36:05Z</time>
      </trkpt>
      <trkpt lat="47.664376515895128" lon="11.901891203597188">
        <ele>1388.761962890625</ele>
        <time>2013-04-20T11:36:15Z</time>
      </trkpt>
      <trkpt lat="47.664382047951221" lon="11.901899753138423">
        <ele>1389.72314453125</ele>
        <time>2013-04-20T11:36:25Z</time>
      </trkpt>
      <trkpt lat="47.664383640512824" lon="11.90191232599318">
        <ele>1389.242431640625</ele>
        <time>2013-04-20T11:36:39Z</time>
      </trkpt>
      <trkpt lat="47.664354052394629" lon="11.901966808363795">
        <ele>1390.684326171875</ele>
        <time>2013-04-20T11:36:59Z</time>
      </trkpt>
      <trkpt lat="47.664336282759905" lon="11.902102511376143">
        <ele>1393.568359375</ele>
        <time>2013-04-20T11:37:15Z</time>
      </trkpt>
      <trkpt lat="47.664356483146548" lon="11.902243746444583">
        <ele>1397.41357421875</ele>
        <time>2013-04-20T11:37:30Z</time>
      </trkpt>
      <trkpt lat="47.664380371570587" lon="11.902396799996495">
        <ele>1400.778076171875</ele>
        <time>2013-04-20T11:37:47Z</time>
      </trkpt>
      <trkpt lat="47.66440006904304" lon="11.902542812749743">
        <ele>1402.70068359375</ele>
        <time>2013-04-20T11:38:06Z</time>
      </trkpt>
      <trkpt lat="47.664401829242706" lon="11.902628391981125">
        <ele>1404.14306640625</ele>
        <time>2013-04-20T11:38:17Z</time>
      </trkpt>
      <trkpt lat="47.664443487301469" lon="11.902829725295305">
        <ele>1406.0654296875</ele>
        <time>2013-04-20T11:38:34Z</time>
      </trkpt>
      <trkpt lat="47.664487408474088" lon="11.903133569285274">
        <ele>1409.43017578125</ele>
        <time>2013-04-20T11:39:00Z</time>
      </trkpt>
      <trkpt lat="47.664506016299129" lon="11.903439927846193">
        <ele>1412.31396484375</ele>
        <time>2013-04-20T11:39:26Z</time>
      </trkpt>
      <trkpt lat="47.664508111774921" lon="11.90346272662282">
        <ele>1413.275390625</ele>
        <time>2013-04-20T11:39:28Z</time>
      </trkpt>
      <trkpt lat="47.664513392373919" lon="11.903622234240174">
        <ele>1415.6787109375</ele>
        <time>2013-04-20T11:39:43Z</time>
      </trkpt>
      <trkpt lat="47.664512721821666" lon="11.903713010251522">
        <ele>1415.6787109375</ele>
        <time>2013-04-20T11:39:53Z</time>
      </trkpt>
      <trkpt lat="47.664536107331514" lon="11.903859190642834">
        <ele>1417.60107421875</ele>
        <time>2013-04-20T11:40:08Z</time>
      </trkpt>
      <trkpt lat="47.664555553346872" lon="11.90393915399909">
        <ele>1420.004638671875</ele>
        <time>2013-04-20T11:40:25Z</time>
      </trkpt>
      <trkpt lat="47.664621435105801" lon="11.904124394059181">
        <ele>1423.369384765625</ele>
        <time>2013-04-20T11:40:44Z</time>
      </trkpt>
      <trkpt lat="47.664690334349871" lon="11.904302341863513">
        <ele>1425.291748046875</ele>
        <time>2013-04-20T11:41:02Z</time>
      </trkpt>
      <trkpt lat="47.664830563589931" lon="11.90458313561976">
        <ele>1426.253173828125</ele>
        <time>2013-04-20T11:41:31Z</time>
      </trkpt>
      <trkpt lat="47.664922010153532" lon="11.904727555811405">
        <ele>1426.73388671875</ele>
        <time>2013-04-20T11:41:47Z</time>
      </trkpt>
      <trkpt lat="47.665004068985581" lon="11.904858481138945">
        <ele>1427.214599609375</ele>
        <time>2013-04-20T11:42:03Z</time>
      </trkpt>
      <trkpt lat="47.665083277970552" lon="11.904989238828421">
        <ele>1426.73388671875</ele>
        <time>2013-04-20T11:42:18Z</time>
      </trkpt>
      <trkpt lat="47.665096186101437" lon="11.905004242435098">
        <ele>1426.253173828125</ele>
        <time>2013-04-20T11:42:27Z</time>
      </trkpt>
      <trkpt lat="47.665116637945175" lon="11.905072471126914">
        <ele>1426.253173828125</ele>
        <time>2013-04-20T11:42:50Z</time>
      </trkpt>
      <trkpt lat="47.665146980434656" lon="11.905189231038094">
        <ele>1424.811279296875</ele>
        <time>2013-04-20T11:42:58Z</time>
      </trkpt>
      <trkpt lat="47.665254604071379" lon="11.905276319012046">
        <ele>1424.811279296875</ele>
        <time>2013-04-20T11:43:11Z</time>
      </trkpt>
      <trkpt lat="47.66538368538022" lon="11.90537472255528">
        <ele>1424.811279296875</ele>
        <time>2013-04-20T11:43:24Z</time>
      </trkpt>
      <trkpt lat="47.665453758090734" lon="11.905447477474809">
        <ele>1424.33056640625</ele>
        <time>2013-04-20T11:43:35Z</time>
      </trkpt>
      <trkpt lat="47.665528021752834" lon="11.905533308163285">
        <ele>1420.966064453125</ele>
        <time>2013-04-20T11:43:45Z</time>
      </trkpt>
      <trkpt lat="47.665622904896736" lon="11.905627604573965">
        <ele>1419.52392578125</ele>
        <time>2013-04-20T11:43:53Z</time>
      </trkpt>
      <trkpt lat="47.665747627615929" lon="11.905717374756932">
        <ele>1418.5625</ele>
        <time>2013-04-20T11:44:08Z</time>
      </trkpt>
      <trkpt lat="47.66585030592978" lon="11.90580278635025">
        <ele>1418.5625</ele>
        <time>2013-04-20T11:44:21Z</time>
      </trkpt>
      <trkpt lat="47.66592163592577" lon="11.905859867110848">
        <ele>1418.081787109375</ele>
        <time>2013-04-20T11:44:31Z</time>
      </trkpt>
      <trkpt lat="47.665966982021928" lon="11.905903117731214">
        <ele>1417.60107421875</ele>
        <time>2013-04-20T11:44:41Z</time>
      </trkpt>
      <trkpt lat="47.66605406999588" lon="11.905911667272449">
        <ele>1418.081787109375</ele>
        <time>2013-04-20T11:44:53Z</time>
      </trkpt>
      <trkpt lat="47.666095811873674" lon="11.905915690585971">
        <ele>1419.043212890625</ele>
        <time>2013-04-20T11:45:03Z</time>
      </trkpt>
      <trkpt lat="47.666262947022915" lon="11.905938237905502">
        <ele>1420.966064453125</ele>
        <time>2013-04-20T11:45:21Z</time>
      </trkpt>
      <trkpt lat="47.666373923420906" lon="11.906009651720524">
        <ele>1420.4853515625</ele>
        <time>2013-04-20T11:45:35Z</time>
      </trkpt>
      <trkpt lat="47.666428992524743" lon="11.906021218746901">
        <ele>1421.446533203125</ele>
        <time>2013-04-20T11:45:48Z</time>
      </trkpt>
      <trkpt lat="47.66647819429636" lon="11.906026331707835">
        <ele>1422.888671875</ele>
        <time>2013-04-20T11:45:58Z</time>
      </trkpt>
      <trkpt lat="47.66657785512507" lon="11.906034545972943">
        <ele>1423.849853515625</ele>
        <time>2013-04-20T11:46:10Z</time>
      </trkpt>
      <trkpt lat="47.666698386892676" lon="11.906091375276446">
        <ele>1425.291748046875</ele>
        <time>2013-04-20T11:46:24Z</time>
      </trkpt>
      <trkpt lat="47.666823444887996" lon="11.906127166002989">
        <ele>1424.811279296875</ele>
        <time>2013-04-20T11:46:37Z</time>
      </trkpt>
      <trkpt lat="47.666962668299675" lon="11.90621224232018">
        <ele>1425.7724609375</ele>
        <time>2013-04-20T11:46:51Z</time>
      </trkpt>
      <trkpt lat="47.666984209790826" lon="11.90623034723103">
        <ele>1426.253173828125</ele>
        <time>2013-04-20T11:46:59Z</time>
      </trkpt>
      <trkpt lat="47.667022347450256" lon="11.906260270625353">
        <ele>1427.214599609375</ele>
        <time>2013-04-20T11:47:15Z</time>
      </trkpt>
      <trkpt lat="47.667154194787145" lon="11.906419275328517">
        <ele>1428.656494140625</ele>
        <time>2013-04-20T11:47:33Z</time>
      </trkpt>
      <trkpt lat="47.667255280539393" lon="11.906635360792279">
        <ele>1428.656494140625</ele>
        <time>2013-04-20T11:47:50Z</time>
      </trkpt>
      <trkpt lat="47.667341362684965" lon="11.906732758507133">
        <ele>1430.098388671875</ele>
        <time>2013-04-20T11:48:02Z</time>
      </trkpt>
      <trkpt lat="47.667424846440554" lon="11.906821606680751">
        <ele>1431.540283203125</ele>
        <time>2013-04-20T11:48:13Z</time>
      </trkpt>
      <trkpt lat="47.667536828666925" lon="11.906965440139174">
        <ele>1434.905029296875</ele>
        <time>2013-04-20T11:48:31Z</time>
      </trkpt>
      <trkpt lat="47.667680662125349" lon="11.907105250284076">
        <ele>1437.7890625</ele>
        <time>2013-04-20T11:48:53Z</time>
      </trkpt>
      <trkpt lat="47.667788285762072" lon="11.907202480360866">
        <ele>1437.7890625</ele>
        <time>2013-04-20T11:49:07Z</time>
      </trkpt>
      <trkpt lat="47.667856095358729" lon="11.907286131754518">
        <ele>1438.75048828125</ele>
        <time>2013-04-20T11:49:19Z</time>
      </trkpt>
      <trkpt lat="47.667938657104969" lon="11.907441029325128">
        <ele>1440.6728515625</ele>
        <time>2013-04-20T11:49:34Z</time>
      </trkpt>
      <trkpt lat="47.668039072304964" lon="11.907572792842984">
        <ele>1442.114990234375</ele>
        <time>2013-04-20T11:49:48Z</time>
      </trkpt>
      <trkpt lat="47.668120292946696" lon="11.907609421759844">
        <ele>1442.595703125</ele>
        <time>2013-04-20T11:49:58Z</time>
      </trkpt>
      <trkpt lat="47.668181313201785" lon="11.907637920230627">
        <ele>1441.63427734375</ele>
        <time>2013-04-20T11:50:08Z</time>
      </trkpt>
      <trkpt lat="47.668187012895942" lon="11.907646972686052">
        <ele>1441.63427734375</ele>
        <time>2013-04-20T11:50:09Z</time>
      </trkpt>
      <trkpt lat="47.668220540508628" lon="11.907701622694731">
        <ele>1440.1923828125</ele>
        <time>2013-04-20T11:50:13Z</time>
      </trkpt>
      <trkpt lat="47.668294552713633" lon="11.907831039279699">
        <ele>1440.6728515625</ele>
        <time>2013-04-20T11:50:21Z</time>
      </trkpt>
      <trkpt lat="47.668403601273894" lon="11.90801041200757">
        <ele>1443.076171875</ele>
        <time>2013-04-20T11:50:41Z</time>
      </trkpt>
      <trkpt lat="47.668464621528983" lon="11.908155754208565">
        <ele>1444.03759765625</ele>
        <time>2013-04-20T11:50:54Z</time>
      </trkpt>
      <trkpt lat="47.668529497459531" lon="11.908370917662978">
        <ele>1446.92138671875</ele>
        <time>2013-04-20T11:51:12Z</time>
      </trkpt>
      <trkpt lat="47.668577609583735" lon="11.90852539613843">
        <ele>1447.8828125</ele>
        <time>2013-04-20T11:51:26Z</time>
      </trkpt>
      <trkpt lat="47.668599067255855" lon="11.908653974533081">
        <ele>1450.2861328125</ele>
        <time>2013-04-20T11:51:36Z</time>
      </trkpt>
      <trkpt lat="47.668682299554348" lon="11.908873580396175">
        <ele>1451.247314453125</ele>
        <time>2013-04-20T11:51:54Z</time>
      </trkpt>
      <trkpt lat="47.668713564053178" lon="11.908971900120378">
        <ele>1452.689453125</ele>
        <time>2013-04-20T11:52:04Z</time>
      </trkpt>
      <trkpt lat="47.668685568496585" lon="11.909068627282977">
        <ele>1453.170166015625</ele>
        <time>2013-04-20T11:52:15Z</time>
      </trkpt>
      <trkpt lat="47.66867165453732" lon="11.909100813791156">
        <ele>1454.612060546875</ele>
        <time>2013-04-20T11:52:33Z</time>
      </trkpt>
      <trkpt lat="47.66863695345819" lon="11.909173149615526">
        <ele>1455.573486328125</ele>
        <time>2013-04-20T11:52:48Z</time>
      </trkpt>
      <trkpt lat="47.668590936809778" lon="11.909235846251249">
        <ele>1457.015380859375</ele>
        <time>2013-04-20T11:52:57Z</time>
      </trkpt>
      <trkpt lat="47.668523043394089" lon="11.909377332776785">
        <ele>1460.860595703125</ele>
        <time>2013-04-20T11:53:14Z</time>
      </trkpt>
      <trkpt lat="47.668509548529983" lon="11.909458553418517">
        <ele>1462.783203125</ele>
        <time>2013-04-20T11:53:23Z</time>
      </trkpt>
      <trkpt lat="47.668504938483238" lon="11.909537091851234">
        <ele>1464.22509765625</ele>
        <time>2013-04-20T11:53:41Z</time>
      </trkpt>
      <trkpt lat="47.668502759188414" lon="11.909598866477609">
        <ele>1466.147705078125</ele>
        <time>2013-04-20T11:53:52Z</time>
      </trkpt>
      <trkpt lat="47.668503932654858" lon="11.909670867025852">
        <ele>1469.031982421875</ele>
        <time>2013-04-20T11:54:27Z</time>
      </trkpt>
      <trkpt lat="47.668512146919966" lon="11.909776646643877">
        <ele>1471.915771484375</ele>
        <time>2013-04-20T11:54:39Z</time>
      </trkpt>
      <trkpt lat="47.668512901291251" lon="11.909890305250883">
        <ele>1474.7998046875</ele>
        <time>2013-04-20T11:54:52Z</time>
      </trkpt>
      <trkpt lat="47.668530168011785" lon="11.910011591389775">
        <ele>1478.164306640625</ele>
        <time>2013-04-20T11:55:07Z</time>
      </trkpt>
      <trkpt lat="47.668548692017794" lon="11.910167410969734">
        <ele>1481.52880859375</ele>
        <time>2013-04-20T11:55:25Z</time>
      </trkpt>
      <trkpt lat="47.668582806363702" lon="11.910265311598778">
        <ele>1484.893798828125</ele>
        <time>2013-04-20T11:55:39Z</time>
      </trkpt>
      <trkpt lat="47.668610801920295" lon="11.910365307703614">
        <ele>1487.777587890625</ele>
        <time>2013-04-20T11:55:52Z</time>
      </trkpt>
      <trkpt lat="47.668631756678224" lon="11.910469830036163">
        <ele>1490.661376953125</ele>
        <time>2013-04-20T11:56:07Z</time>
      </trkpt>
      <trkpt lat="47.668653717264533" lon="11.910557085648179">
        <ele>1494.026123046875</ele>
        <time>2013-04-20T11:56:20Z</time>
      </trkpt>
      <trkpt lat="47.668672995641828" lon="11.910638557747006">
        <ele>1495.94873046875</ele>
        <time>2013-04-20T11:56:37Z</time>
      </trkpt>
      <trkpt lat="47.668693363666534" lon="11.91069639287889">
        <ele>1498.83251953125</ele>
        <time>2013-04-20T11:56:54Z</time>
      </trkpt>
      <trkpt lat="47.668714402243495" lon="11.910752216354012">
        <ele>1501.716796875</ele>
        <time>2013-04-20T11:57:04Z</time>
      </trkpt>
      <trkpt lat="47.668739715591073" lon="11.910825474187732">
        <ele>1505.081298828125</ele>
        <time>2013-04-20T11:57:15Z</time>
      </trkpt>
      <trkpt lat="47.668757736682892" lon="11.910893619060516">
        <ele>1506.523193359375</ele>
        <time>2013-04-20T11:57:30Z</time>
      </trkpt>
      <trkpt lat="47.668777350336313" lon="11.910950196906924">
        <ele>1509.4072265625</ele>
        <time>2013-04-20T11:57:51Z</time>
      </trkpt>
      <trkpt lat="47.668812135234475" lon="11.911039212718606">
        <ele>1512.771728515625</ele>
        <time>2013-04-20T11:58:02Z</time>
      </trkpt>
      <trkpt lat="47.668854966759682" lon="11.911144824698567">
        <ele>1516.136474609375</ele>
        <time>2013-04-20T11:58:16Z</time>
      </trkpt>
      <trkpt lat="47.66888421960175" lon="11.911210287362337">
        <ele>1519.501220703125</ele>
        <time>2013-04-20T11:58:26Z</time>
      </trkpt>
      <trkpt lat="47.668901402503252" lon="11.911224452778697">
        <ele>1519.981689453125</ele>
        <time>2013-04-20T11:58:40Z</time>
      </trkpt>
      <trkpt lat="47.66893258318305" lon="11.911286730319262">
        <ele>1522.86572265625</ele>
        <time>2013-04-20T11:58:52Z</time>
      </trkpt>
      <trkpt lat="47.668945072218776" lon="11.911323359236121">
        <ele>1524.3076171875</ele>
        <time>2013-04-20T11:58:59Z</time>
      </trkpt>
      <trkpt lat="47.668989412486553" lon="11.911392929032445">
        <ele>1526.7109375</ele>
        <time>2013-04-20T11:59:09Z</time>
      </trkpt>
      <trkpt lat="47.669033417478204" lon="11.911467025056481">
        <ele>1529.5947265625</ele>
        <time>2013-04-20T11:59:21Z</time>
      </trkpt>
      <trkpt lat="47.669105334207416" lon="11.911471886560321">
        <ele>1531.998046875</ele>
        <time>2013-04-20T11:59:33Z</time>
      </trkpt>
      <trkpt lat="47.66912410967052" lon="11.911451769992709">
        <ele>1532.47900390625</ele>
        <time>2013-04-20T11:59:47Z</time>
      </trkpt>
      <trkpt lat="47.669154452160001" lon="11.911460151895881">
        <ele>1533.9208984375</ele>
        <time>2013-04-20T11:59:59Z</time>
      </trkpt>
      <trkpt lat="47.669204575940967" lon="11.911539444699883">
        <ele>1536.8046875</ele>
        <time>2013-04-20T12:00:10Z</time>
      </trkpt>
      <trkpt lat="47.669206587597728" lon="11.911569451913238">
        <ele>1538.246826171875</ele>
        <time>2013-04-20T12:00:14Z</time>
      </trkpt>
      <trkpt lat="47.669221172109246" lon="11.911631813272834">
        <ele>1540.16943359375</ele>
        <time>2013-04-20T12:00:23Z</time>
      </trkpt>
      <trkpt lat="47.669223099946976" lon="11.91170347854495">
        <ele>1542.57275390625</ele>
        <time>2013-04-20T12:00:32Z</time>
      </trkpt>
      <trkpt lat="47.669228883460164" lon="11.911772880703211">
        <ele>1545.937255859375</ele>
        <time>2013-04-20T12:00:42Z</time>
      </trkpt>
      <trkpt lat="47.669241791591048" lon="11.911841277033091">
        <ele>1549.78271484375</ele>
        <time>2013-04-20T12:00:54Z</time>
      </trkpt>
      <trkpt lat="47.66927313990891" lon="11.911918306723237">
        <ele>1553.147216796875</ele>
        <time>2013-04-20T12:01:07Z</time>
      </trkpt>
      <trkpt lat="47.669289819896221" lon="11.91195560619235">
        <ele>1554.108642578125</ele>
        <time>2013-04-20T12:01:22Z</time>
      </trkpt>
      <trkpt lat="47.669294513761997" lon="11.912004891782999">
        <ele>1557.47314453125</ele>
        <time>2013-04-20T12:01:32Z</time>
      </trkpt>
      <trkpt lat="47.669300967827439" lon="11.912109246477485">
        <ele>1560.35693359375</ele>
        <time>2013-04-20T12:01:44Z</time>
      </trkpt>
      <trkpt lat="47.669306499883533" lon="11.912194658070803">
        <ele>1563.721435546875</ele>
        <time>2013-04-20T12:01:54Z</time>
      </trkpt>
      <trkpt lat="47.669329466298223" lon="11.912251738831401">
        <ele>1565.163818359375</ele>
        <time>2013-04-20T12:02:07Z</time>
      </trkpt>
      <trkpt lat="47.66934597864747" lon="11.912301192060113">
        <ele>1567.56689453125</ele>
        <time>2013-04-20T12:02:28Z</time>
      </trkpt>
      <trkpt lat="47.669341620057821" lon="11.912374701350927">
        <ele>1570.931640625</ele>
        <time>2013-04-20T12:02:35Z</time>
      </trkpt>
      <trkpt lat="47.669347990304232" lon="11.91248576156795">
        <ele>1573.8154296875</ele>
        <time>2013-04-20T12:02:45Z</time>
      </trkpt>
      <trkpt lat="47.669352432712913" lon="11.912588607519865">
        <ele>1576.699462890625</ele>
        <time>2013-04-20T12:02:56Z</time>
      </trkpt>
      <trkpt lat="47.66935721039772" lon="11.912661530077457">
        <ele>1580.064208984375</ele>
        <time>2013-04-20T12:03:05Z</time>
      </trkpt>
      <trkpt lat="47.669357294216752" lon="11.912693129852414">
        <ele>1580.544921875</ele>
        <time>2013-04-20T12:03:18Z</time>
      </trkpt>
      <trkpt lat="47.669335836544633" lon="11.912753731012344">
        <ele>1581.506103515625</ele>
        <time>2013-04-20T12:03:28Z</time>
      </trkpt>
      <trkpt lat="47.669307170435786" lon="11.912976270541549">
        <ele>1583.4287109375</ele>
        <time>2013-04-20T12:03:47Z</time>
      </trkpt>
      <trkpt lat="47.66934497281909" lon="11.913008457049727">
        <ele>1585.83203125</ele>
        <time>2013-04-20T12:04:00Z</time>
      </trkpt>
      <trkpt lat="47.669418901205063" lon="11.913044080138206">
        <ele>1589.196533203125</ele>
        <time>2013-04-20T12:04:14Z</time>
      </trkpt>
      <trkpt lat="47.669496182352304" lon="11.913092695176601">
        <ele>1592.08056640625</ele>
        <time>2013-04-20T12:04:28Z</time>
      </trkpt>
      <trkpt lat="47.669572373852134" lon="11.913106441497803">
        <ele>1595.445068359375</ele>
        <time>2013-04-20T12:04:41Z</time>
      </trkpt>
      <trkpt lat="47.669591652229428" lon="11.913116248324513">
        <ele>1596.40673828125</ele>
        <time>2013-04-20T12:04:56Z</time>
      </trkpt>
      <trkpt lat="47.669609086588025" lon="11.91312831826508">
        <ele>1597.8486328125</ele>
        <time>2013-04-20T12:05:05Z</time>
      </trkpt>
      <trkpt lat="47.669671783223748" lon="11.913155810907483">
        <ele>1600.732421875</ele>
        <time>2013-04-20T12:05:16Z</time>
      </trkpt>
      <trkpt lat="47.669657450169325" lon="11.913264021277428">
        <ele>1602.655029296875</ele>
        <time>2013-04-20T12:05:27Z</time>
      </trkpt>
      <trkpt lat="47.669659629464149" lon="11.913284221664071">
        <ele>1604.09716796875</ele>
        <time>2013-04-20T12:05:29Z</time>
      </trkpt>
      <trkpt lat="47.669673962518573" lon="11.91333157941699">
        <ele>1605.058349609375</ele>
        <time>2013-04-20T12:05:34Z</time>
      </trkpt>
      <trkpt lat="47.669698437675834" lon="11.91339653916657">
        <ele>1608.4228515625</ele>
        <time>2013-04-20T12:05:44Z</time>
      </trkpt>
      <trkpt lat="47.669698102399707" lon="11.913432665169239">
        <ele>1607.9423828125</ele>
        <time>2013-04-20T12:05:57Z</time>
      </trkpt>
      <trkpt lat="47.669734731316566" lon="11.913494523614645">
        <ele>1609.86474609375</ele>
        <time>2013-04-20T12:06:24Z</time>
      </trkpt>
      <trkpt lat="47.669780077412724" lon="11.91352067515254">
        <ele>1610.826171875</ele>
        <time>2013-04-20T12:06:33Z</time>
      </trkpt>
      <trkpt lat="47.669875966385007" lon="11.913594100624323">
        <ele>1613.229736328125</ele>
        <time>2013-04-20T12:06:48Z</time>
      </trkpt>
      <trkpt lat="47.669918546453118" lon="11.913626035675406">
        <ele>1614.19091796875</ele>
        <time>2013-04-20T12:06:59Z</time>
      </trkpt>
      <trkpt lat="47.669942267239094" lon="11.913670878857374">
        <ele>1615.633056640625</ele>
        <time>2013-04-20T12:07:12Z</time>
      </trkpt>
      <trkpt lat="47.670004796236753" lon="11.913721337914467">
        <ele>1618.99755859375</ele>
        <time>2013-04-20T12:07:24Z</time>
      </trkpt>
      <trkpt lat="47.670061709359288" lon="11.913777077570558">
        <ele>1622.362060546875</ele>
        <time>2013-04-20T12:07:34Z</time>
      </trkpt>
      <trkpt lat="47.670077467337251" lon="11.913806162774563">
        <ele>1622.362060546875</ele>
        <time>2013-04-20T12:07:47Z</time>
      </trkpt>
      <trkpt lat="47.670107474550605" lon="11.913871457800269">
        <ele>1624.765380859375</ele>
        <time>2013-04-20T12:08:11Z</time>
      </trkpt>
      <trkpt lat="47.670136392116547" lon="11.913949409499764">
        <ele>1627.649169921875</ele>
        <time>2013-04-20T12:08:22Z</time>
      </trkpt>
      <trkpt lat="47.670189114287496" lon="11.914042616263032">
        <ele>1631.49462890625</ele>
        <time>2013-04-20T12:08:37Z</time>
      </trkpt>
      <trkpt lat="47.670231442898512" lon="11.914133224636316">
        <ele>1634.859375</ele>
        <time>2013-04-20T12:08:50Z</time>
      </trkpt>
      <trkpt lat="47.670283494517207" lon="11.914233891293406">
        <ele>1638.223876953125</ele>
        <time>2013-04-20T12:09:05Z</time>
      </trkpt>
      <trkpt lat="47.670292882248759" lon="11.914273789152503">
        <ele>1638.70458984375</ele>
        <time>2013-04-20T12:09:21Z</time>
      </trkpt>
      <trkpt lat="47.670311741530895" lon="11.914340928196907">
        <ele>1641.107666015625</ele>
        <time>2013-04-20T12:09:41Z</time>
      </trkpt>
      <trkpt lat="47.670332193374634" lon="11.914441930130124">
        <ele>1643.510986328125</ele>
        <time>2013-04-20T12:09:53Z</time>
      </trkpt>
      <trkpt lat="47.670338395982981" lon="11.914543770253658">
        <ele>1646.875732421875</ele>
        <time>2013-04-20T12:10:05Z</time>
      </trkpt>
      <trkpt lat="47.670390866696835" lon="11.914716102182865">
        <ele>1649.759765625</ele>
        <time>2013-04-20T12:10:25Z</time>
      </trkpt>
      <trkpt lat="47.670403104275465" lon="11.914794808253646">
        <ele>1651.20166015625</ele>
        <time>2013-04-20T12:10:40Z</time>
      </trkpt>
      <trkpt lat="47.67042045481503" lon="11.914861109107733">
        <ele>1652.162841796875</ele>
        <time>2013-04-20T12:11:18Z</time>
      </trkpt>
      <trkpt lat="47.670459346845746" lon="11.915081804618239">
        <ele>1655.527587890625</ele>
        <time>2013-04-20T12:11:37Z</time>
      </trkpt>
      <trkpt lat="47.670512739568949" lon="11.915212729945779">
        <ele>1653.60498046875</ele>
        <time>2013-04-20T12:11:50Z</time>
      </trkpt>
      <trkpt lat="47.670622039586306" lon="11.915343990549445">
        <ele>1653.124267578125</ele>
        <time>2013-04-20T12:12:04Z</time>
      </trkpt>
      <trkpt lat="47.670733770355582" lon="11.915430072695017">
        <ele>1653.124267578125</ele>
        <time>2013-04-20T12:12:17Z</time>
      </trkpt>
      <trkpt lat="47.670873161405325" lon="11.915421774610877">
        <ele>1653.60498046875</ele>
        <time>2013-04-20T12:12:30Z</time>
      </trkpt>
      <trkpt lat="47.670902498066425" lon="11.915398892015219">
        <ele>1654.566162109375</ele>
        <time>2013-04-20T12:12:41Z</time>
      </trkpt>
      <trkpt lat="47.670958321541548" lon="11.915418338030577">
        <ele>1655.527587890625</ele>
        <time>2013-04-20T12:12:51Z</time>
      </trkpt>
      <trkpt lat="47.67106737010181" lon="11.915451027452946">
        <ele>1658.89208984375</ele>
        <time>2013-04-20T12:13:07Z</time>
      </trkpt>
      <trkpt lat="47.671143729239702" lon="11.915571726858616">
        <ele>1659.853271484375</ele>
        <time>2013-04-20T12:13:22Z</time>
      </trkpt>
      <trkpt lat="47.671197624877095" lon="11.91561933606863">
        <ele>1662.2568359375</ele>
        <time>2013-04-20T12:13:36Z</time>
      </trkpt>
      <trkpt lat="47.67122226767242" lon="11.915636518970132">
        <ele>1663.69873046875</ele>
        <time>2013-04-20T12:13:46Z</time>
      </trkpt>
      <trkpt lat="47.671233415603638" lon="11.91563006490469">
        <ele>1664.66015625</ele>
        <time>2013-04-20T12:13:55Z</time>
      </trkpt>
      <trkpt lat="47.671254454180598" lon="11.915593352168798">
        <ele>1666.582763671875</ele>
        <time>2013-04-20T12:14:03Z</time>
      </trkpt>
      <trkpt lat="47.671279013156891" lon="11.915564518421888">
        <ele>1668.50537109375</ele>
        <time>2013-04-20T12:14:10Z</time>
      </trkpt>
      <trkpt lat="47.671289658173919" lon="11.915559489279985">
        <ele>1668.986083984375</ele>
        <time>2013-04-20T12:14:20Z</time>
      </trkpt>
      <trkpt lat="47.671311870217323" lon="11.915481621399522">
        <ele>1671.38916015625</ele>
        <time>2013-04-20T12:14:32Z</time>
      </trkpt>
      <trkpt lat="47.671326957643032" lon="11.915442645549774">
        <ele>1673.79248046875</ele>
        <time>2013-04-20T12:14:40Z</time>
      </trkpt>
      <trkpt lat="47.671335926279426" lon="11.915429150685668">
        <ele>1674.75390625</ele>
        <time>2013-04-20T12:14:53Z</time>
      </trkpt>
      <trkpt lat="47.671362832188606" lon="11.915435520932078">
        <ele>1675.715087890625</ele>
        <time>2013-04-20T12:15:02Z</time>
      </trkpt>
      <trkpt lat="47.671437682583928" lon="11.915478687733412">
        <ele>1678.599365234375</ele>
        <time>2013-04-20T12:15:14Z</time>
      </trkpt>
      <trkpt lat="47.671503312885761" lon="11.915513891726732">
        <ele>1681.9638671875</ele>
        <time>2013-04-20T12:15:25Z</time>
      </trkpt>
      <trkpt lat="47.671601381152868" lon="11.915486231446266">
        <ele>1684.847900390625</ele>
        <time>2013-04-20T12:15:42Z</time>
      </trkpt>
      <trkpt lat="47.67163616605103" lon="11.915389336645603">
        <ele>1688.21240234375</ele>
        <time>2013-04-20T12:15:54Z</time>
      </trkpt>
      <trkpt lat="47.671685535460711" lon="11.915264949202538">
        <ele>1691.576904296875</ele>
        <time>2013-04-20T12:16:09Z</time>
      </trkpt>
      <trkpt lat="47.671759631484747" lon="11.915172161534429">
        <ele>1693.499755859375</ele>
        <time>2013-04-20T12:16:28Z</time>
      </trkpt>
      <trkpt lat="47.671766001731157" lon="11.91511457785964">
        <ele>1694.4609375</ele>
        <time>2013-04-20T12:17:05Z</time>
      </trkpt>
      <trkpt lat="47.671839846298099" lon="11.914985412731767">
        <ele>1696.8642578125</ele>
        <time>2013-04-20T12:17:19Z</time>
      </trkpt>
      <trkpt lat="47.671936741098762" lon="11.914884578436613">
        <ele>1700.22900390625</ele>
        <time>2013-04-20T12:17:35Z</time>
      </trkpt>
      <trkpt lat="47.671942273154855" lon="11.914879214018583">
        <ele>1700.22900390625</ele>
        <time>2013-04-20T12:17:36Z</time>
      </trkpt>
      <trkpt lat="47.671993570402265" lon="11.914808554574847">
        <ele>1703.593505859375</ele>
        <time>2013-04-20T12:17:48Z</time>
      </trkpt>
      <trkpt lat="47.672030115500093" lon="11.914750635623932">
        <ele>1705.035400390625</ele>
        <time>2013-04-20T12:18:04Z</time>
      </trkpt>
      <trkpt lat="47.672040928155184" lon="11.914675198495388">
        <ele>1706.477294921875</ele>
        <time>2013-04-20T12:18:15Z</time>
      </trkpt>
      <trkpt lat="47.672036485746503" lon="11.914474535733461">
        <ele>1707.91943359375</ele>
        <time>2013-04-20T12:18:31Z</time>
      </trkpt>
      <trkpt lat="47.672082921490073" lon="11.914346124976873">
        <ele>1710.32275390625</ele>
        <time>2013-04-20T12:18:45Z</time>
      </trkpt>
      <trkpt lat="47.672190377488732" lon="11.914214780554175">
        <ele>1712.72607421875</ele>
        <time>2013-04-20T12:19:03Z</time>
      </trkpt>
      <trkpt lat="47.672252571210265" lon="11.914036078378558">
        <ele>1714.16796875</ele>
        <time>2013-04-20T12:19:19Z</time>
      </trkpt>
      <trkpt lat="47.672265060245991" lon="11.913986038416624">
        <ele>1714.16796875</ele>
        <time>2013-04-20T12:19:29Z</time>
      </trkpt>
      <trkpt lat="47.672288781031966" lon="11.913910182192922">
        <ele>1714.16796875</ele>
        <time>2013-04-20T12:19:55Z</time>
      </trkpt>
      <trkpt lat="47.672364972531796" lon="11.913715722039342">
        <ele>1716.090576171875</ele>
        <time>2013-04-20T12:20:12Z</time>
      </trkpt>
      <trkpt lat="47.672412497922778" lon="11.913553280755877">
        <ele>1717.532470703125</ele>
        <time>2013-04-20T12:20:25Z</time>
      </trkpt>
      <trkpt lat="47.672482570633292" lon="11.913352953270078">
        <ele>1719.455322265625</ele>
        <time>2013-04-20T12:20:43Z</time>
      </trkpt>
      <trkpt lat="47.672503441572189" lon="11.91316980868578">
        <ele>1719.935791015625</ele>
        <time>2013-04-20T12:20:56Z</time>
      </trkpt>
      <trkpt lat="47.672563623636961" lon="11.913001583889127">
        <ele>1720.897216796875</ele>
        <time>2013-04-20T12:21:10Z</time>
      </trkpt>
      <trkpt lat="47.672600587829947" lon="11.912812739610672">
        <ele>1721.8583984375</ele>
        <time>2013-04-20T12:21:24Z</time>
      </trkpt>
      <trkpt lat="47.672649621963501" lon="11.912655998021364">
        <ele>1722.339111328125</ele>
        <time>2013-04-20T12:21:36Z</time>
      </trkpt>
      <trkpt lat="47.672703014686704" lon="11.912483749911189">
        <ele>1724.261962890625</ele>
        <time>2013-04-20T12:21:50Z</time>
      </trkpt>
      <trkpt lat="47.67277124337852" lon="11.912286523729563">
        <ele>1724.74267578125</ele>
        <time>2013-04-20T12:22:08Z</time>
      </trkpt>
      <trkpt lat="47.67285187728703" lon="11.912114527076483">
        <ele>1725.22314453125</ele>
        <time>2013-04-20T12:22:22Z</time>
      </trkpt>
      <trkpt lat="47.672971738502383" lon="11.912022409960628">
        <ele>1726.665283203125</ele>
        <time>2013-04-20T12:22:36Z</time>
      </trkpt>
      <trkpt lat="47.67300870269537" lon="11.912013860419393">
        <ele>1728.587890625</ele>
        <time>2013-04-20T12:22:41Z</time>
      </trkpt>
      <trkpt lat="47.673127138987184" lon="11.912059457972646">
        <ele>1731.4716796875</ele>
        <time>2013-04-20T12:22:55Z</time>
      </trkpt>
      <trkpt lat="47.673187488690019" lon="11.912187533453107">
        <ele>1733.394287109375</ele>
        <time>2013-04-20T12:23:09Z</time>
      </trkpt>
      <trkpt lat="47.673190841451287" lon="11.912200106307864">
        <ele>1733.394287109375</ele>
        <time>2013-04-20T12:23:18Z</time>
      </trkpt>
      <trkpt lat="47.673193775117397" lon="11.91219599917531">
        <ele>1733.394287109375</ele>
        <time>2013-04-20T12:23:25Z</time>
      </trkpt>
      <trkpt lat="47.673188829794526" lon="11.912210248410702">
        <ele>1733.394287109375</ele>
        <time>2013-04-20T12:23:36Z</time>
      </trkpt>
      <trkpt lat="47.673187740147114" lon="11.912217875942588">
        <ele>1733.875</ele>
        <time>2013-04-20T12:23:44Z</time>
      </trkpt>
      <trkpt lat="47.673185141757131" lon="11.912221731618047">
        <ele>1730.9912109375</ele>
        <time>2013-04-20T12:27:28Z</time>
      </trkpt>
      <trkpt lat="47.673176256939769" lon="11.912224078550935">
        <ele>1731.952392578125</ele>
        <time>2013-04-20T12:36:19Z</time>
      </trkpt>
      <trkpt lat="47.673165611922741" lon="11.91221653483808">
        <ele>1729.549072265625</ele>
        <time>2013-04-20T12:40:59Z</time>
      </trkpt>
      <trkpt lat="47.673158906400204" lon="11.912205806002021">
        <ele>1730.510498046875</ele>
        <time>2013-04-20T12:41:25Z</time>
      </trkpt>
      <trkpt lat="47.673162342980504" lon="11.91219599917531">
        <ele>1730.9912109375</ele>
        <time>2013-04-20T12:41:40Z</time>
      </trkpt>
      <trkpt lat="47.673157481476665" lon="11.912196669727564">
        <ele>1729.549072265625</ele>
        <time>2013-04-20T12:41:48Z</time>
      </trkpt>
      <trkpt lat="47.673148848116398" lon="11.912194574251771">
        <ele>1729.549072265625</ele>
        <time>2013-04-20T12:41:57Z</time>
      </trkpt>
      <trkpt lat="47.673149770125747" lon="11.912181582301855">
        <ele>1728.107177734375</ele>
        <time>2013-04-20T12:42:23Z</time>
      </trkpt>
      <trkpt lat="47.673149518668652" lon="11.912181498482823">
        <ele>1729.549072265625</ele>
        <time>2013-04-20T12:43:45Z</time>
      </trkpt>
      <trkpt lat="47.673147339373827" lon="11.912193903699517">
        <ele>1729.549072265625</ele>
        <time>2013-04-20T12:43:53Z</time>
      </trkpt>
      <trkpt lat="47.673148093745112" lon="11.912196837365627">
        <ele>1729.068359375</ele>
        <time>2013-04-20T12:44:07Z</time>
      </trkpt>
      <trkpt lat="47.673147171735764" lon="11.912200357764959">
        <ele>1730.510498046875</ele>
        <time>2013-04-20T12:44:12Z</time>
      </trkpt>
      <trkpt lat="47.673145579174161" lon="11.91220086067915">
        <ele>1730.510498046875</ele>
        <time>2013-04-20T12:44:22Z</time>
      </trkpt>
      <trkpt lat="47.673149770125747" lon="11.91219842992723">
        <ele>1728.587890625</ele>
        <time>2013-04-20T12:44:48Z</time>
      </trkpt>
      <trkpt lat="47.673143399879336" lon="11.912186192348599">
        <ele>1729.549072265625</ele>
        <time>2013-04-20T12:44:51Z</time>
      </trkpt>
      <trkpt lat="47.673108698800206" lon="11.912104301154613">
        <ele>1728.107177734375</ele>
        <time>2013-04-20T12:44:55Z</time>
      </trkpt>
      <trkpt lat="47.67300970852375" lon="11.911911768838763">
        <ele>1724.74267578125</ele>
        <time>2013-04-20T12:44:59Z</time>
      </trkpt>
      <trkpt lat="47.672910718247294" lon="11.911807330325246">
        <ele>1721.377685546875</ele>
        <time>2013-04-20T12:45:02Z</time>
      </trkpt>
      <trkpt lat="47.672789515927434" lon="11.911752345040441">
        <ele>1717.532470703125</ele>
        <time>2013-04-20T12:45:05Z</time>
      </trkpt>
      <trkpt lat="47.672701925039291" lon="11.911695934832096">
        <ele>1713.687255859375</ele>
        <time>2013-04-20T12:45:07Z</time>
      </trkpt>
      <trkpt lat="47.672616261988878" lon="11.911626532673836">
        <ele>1709.842041015625</ele>
        <time>2013-04-20T12:45:09Z</time>
      </trkpt>
      <trkpt lat="47.672482905909419" lon="11.911659725010395">
        <ele>1706.477294921875</ele>
        <time>2013-04-20T12:45:12Z</time>
      </trkpt>
      <trkpt lat="47.672441834583879" lon="11.911709597334266">
        <ele>1705.035400390625</ele>
        <time>2013-04-20T12:45:13Z</time>
      </trkpt>
      <trkpt lat="47.672312501817942" lon="11.911982176825404">
        <ele>1699.267578125</ele>
        <time>2013-04-20T12:45:17Z</time>
      </trkpt>
      <trkpt lat="47.672219630330801" lon="11.912203878164291">
        <ele>1696.3837890625</ele>
        <time>2013-04-20T12:45:21Z</time>
      </trkpt>
      <trkpt lat="47.672142349183559" lon="11.912397583946586">
        <ele>1693.01904296875</ele>
        <time>2013-04-20T12:45:24Z</time>
      </trkpt>
      <trkpt lat="47.672021649777889" lon="11.912690782919526">
        <ele>1689.173583984375</ele>
        <time>2013-04-20T12:45:30Z</time>
      </trkpt>
      <trkpt lat="47.672007065266371" lon="11.912725400179625">
        <ele>1689.173583984375</ele>
        <time>2013-04-20T12:45:31Z</time>
      </trkpt>
      <trkpt lat="47.671925006434321" lon="11.912939222529531">
        <ele>1687.2509765625</ele>
        <time>2013-04-20T12:45:38Z</time>
      </trkpt>
      <trkpt lat="47.671828614547849" lon="11.913166288286448">
        <ele>1683.886474609375</ele>
        <time>2013-04-20T12:45:43Z</time>
      </trkpt>
      <trkpt lat="47.671809084713459" lon="11.913215992972255">
        <ele>1683.886474609375</ele>
        <time>2013-04-20T12:45:44Z</time>
      </trkpt>
      <trkpt lat="47.671721577644348" lon="11.913442388176918">
        <ele>1680.041259765625</ele>
        <time>2013-04-20T12:45:49Z</time>
      </trkpt>
      <trkpt lat="47.671616803854704" lon="11.913630226626992">
        <ele>1676.6767578125</ele>
        <time>2013-04-20T12:45:53Z</time>
      </trkpt>
      <trkpt lat="47.6715755648911" lon="11.913711950182915">
        <ele>1675.715087890625</ele>
        <time>2013-04-20T12:45:58Z</time>
      </trkpt>
      <trkpt lat="47.67150322906673" lon="11.913825608789921">
        <ele>1673.79248046875</ele>
        <time>2013-04-20T12:46:04Z</time>
      </trkpt>
      <trkpt lat="47.671417566016316" lon="11.913976399227977">
        <ele>1670.427978515625</ele>
        <time>2013-04-20T12:46:11Z</time>
      </trkpt>
      <trkpt lat="47.67140013165772" lon="11.914009507745504">
        <ele>1669.947265625</ele>
        <time>2013-04-20T12:46:16Z</time>
      </trkpt>
      <trkpt lat="47.671339781954885" lon="11.914077987894416">
        <ele>1668.986083984375</ele>
        <time>2013-04-20T12:46:20Z</time>
      </trkpt>
      <trkpt lat="47.671278761699796" lon="11.914080083370209">
        <ele>1665.62158203125</ele>
        <time>2013-04-20T12:46:22Z</time>
      </trkpt>
      <trkpt lat="47.671208521351218" lon="11.914041861891747">
        <ele>1661.7763671875</ele>
        <time>2013-04-20T12:46:24Z</time>
      </trkpt>
      <trkpt lat="47.671132748946548" lon="11.914098188281059">
        <ele>1659.853271484375</ele>
        <time>2013-04-20T12:46:26Z</time>
      </trkpt>
      <trkpt lat="47.671103579923511" lon="11.914186784997582">
        <ele>1657.4501953125</ele>
        <time>2013-04-20T12:46:28Z</time>
      </trkpt>
      <trkpt lat="47.67108790576458" lon="11.914287284016609">
        <ele>1656.48876953125</ele>
        <time>2013-04-20T12:46:36Z</time>
      </trkpt>
      <trkpt lat="47.671055300161242" lon="11.914419885724783">
        <ele>1656.48876953125</ele>
        <time>2013-04-20T12:46:46Z</time>
      </trkpt>
      <trkpt lat="47.671019425615668" lon="11.91450965590775">
        <ele>1654.566162109375</ele>
        <time>2013-04-20T12:46:51Z</time>
      </trkpt>
      <trkpt lat="47.670940635725856" lon="11.914776954799891">
        <ele>1652.6435546875</ele>
        <time>2013-04-20T12:46:58Z</time>
      </trkpt>
      <trkpt lat="47.670915657654405" lon="11.91492548212409">
        <ele>1652.162841796875</ele>
        <time>2013-04-20T12:47:07Z</time>
      </trkpt>
      <trkpt lat="47.670883303508162" lon="11.915059676393867">
        <ele>1651.20166015625</ele>
        <time>2013-04-20T12:47:15Z</time>
      </trkpt>
      <trkpt lat="47.670881375670433" lon="11.915156822651625">
        <ele>1651.682373046875</ele>
        <time>2013-04-20T12:47:24Z</time>
      </trkpt>
      <trkpt lat="47.67089394852519" lon="11.915281545370817">
        <ele>1651.682373046875</ele>
        <time>2013-04-20T12:47:35Z</time>
      </trkpt>
      <trkpt lat="47.670932086184621" lon="11.915412889793515">
        <ele>1652.6435546875</ele>
        <time>2013-04-20T12:47:48Z</time>
      </trkpt>
      <trkpt lat="47.670969720929861" lon="11.915514394640923">
        <ele>1653.124267578125</ele>
        <time>2013-04-20T12:47:59Z</time>
      </trkpt>
      <trkpt lat="47.670998470857739" lon="11.915570721030235">
        <ele>1653.124267578125</ele>
        <time>2013-04-20T12:48:05Z</time>
      </trkpt>
      <trkpt lat="47.671026801690459" lon="11.915726792067289">
        <ele>1651.682373046875</ele>
        <time>2013-04-20T12:48:11Z</time>
      </trkpt>
      <trkpt lat="47.671068459749222" lon="11.9157849624753">
        <ele>1650.240478515625</ele>
        <time>2013-04-20T12:48:17Z</time>
      </trkpt>
      <trkpt lat="47.671109447255731" lon="11.915827877819538">
        <ele>1650.240478515625</ele>
        <time>2013-04-20T12:48:29Z</time>
      </trkpt>
      <trkpt lat="47.671201312914491" lon="11.915962407365441">
        <ele>1645.91455078125</ele>
        <time>2013-04-20T12:48:34Z</time>
      </trkpt>
      <trkpt lat="47.671210365369916" lon="11.915984535589814">
        <ele>1645.91455078125</ele>
        <time>2013-04-20T12:48:35Z</time>
      </trkpt>
      <trkpt lat="47.671216484159231" lon="11.916009094566107">
        <ele>1645.433837890625</ele>
        <time>2013-04-20T12:48:39Z</time>
      </trkpt>
      <trkpt lat="47.671219250187278" lon="11.916059888899326">
        <ele>1643.0302734375</ele>
        <time>2013-04-20T12:48:42Z</time>
      </trkpt>
      <trkpt lat="47.671204581856728" lon="11.916132057085633">
        <ele>1639.665771484375</ele>
        <time>2013-04-20T12:48:44Z</time>
      </trkpt>
      <trkpt lat="47.671135850250721" lon="11.916186958551407">
        <ele>1635.33984375</ele>
        <time>2013-04-20T12:48:47Z</time>
      </trkpt>
      <trkpt lat="47.671140292659402" lon="11.916273292154074">
        <ele>1633.89794921875</ele>
        <time>2013-04-20T12:48:49Z</time>
      </trkpt>
      <trkpt lat="47.671192428097129" lon="11.916392063722014">
        <ele>1632.4560546875</ele>
        <time>2013-04-20T12:48:51Z</time>
      </trkpt>
      <trkpt lat="47.671248754486442" lon="11.916511170566082">
        <ele>1631.01416015625</ele>
        <time>2013-04-20T12:48:53Z</time>
      </trkpt>
      <trkpt lat="47.671300638467073" lon="11.916791293770075">
        <ele>1625.7265625</ele>
        <time>2013-04-20T12:48:57Z</time>
      </trkpt>
      <trkpt lat="47.671320671215653" lon="11.916881985962391">
        <ele>1625.7265625</ele>
        <time>2013-04-20T12:48:59Z</time>
      </trkpt>
      <trkpt lat="47.671329723671079" lon="11.916889362037182">
        <ele>1625.245849609375</ele>
        <time>2013-04-20T12:49:07Z</time>
      </trkpt>
      <trkpt lat="47.671349924057722" lon="11.917033279314637">
        <ele>1624.28466796875</ele>
        <time>2013-04-20T12:49:13Z</time>
      </trkpt>
      <trkpt lat="47.67138353548944" lon="11.917277611792088">
        <ele>1622.8427734375</ele>
        <time>2013-04-20T12:49:20Z</time>
      </trkpt>
      <trkpt lat="47.671309020370245" lon="11.917488081380725">
        <ele>1620.439453125</ele>
        <time>2013-04-20T12:49:26Z</time>
      </trkpt>
      <trkpt lat="47.671276833862066" lon="11.917609283700585">
        <ele>1619.958740234375</ele>
        <time>2013-04-20T12:49:30Z</time>
      </trkpt>
      <trkpt lat="47.671266021206975" lon="11.917616240680218">
        <ele>1619.478271484375</ele>
        <time>2013-04-20T12:49:47Z</time>
      </trkpt>
      <trkpt lat="47.671198463067412" lon="11.917694192379713">
        <ele>1618.516845703125</ele>
        <time>2013-04-20T12:49:59Z</time>
      </trkpt>
      <trkpt lat="47.671110285446048" lon="11.917787566781044">
        <ele>1618.516845703125</ele>
        <time>2013-04-20T12:50:13Z</time>
      </trkpt>
      <trkpt lat="47.671096120029688" lon="11.917802486568689">
        <ele>1617.555419921875</ele>
        <time>2013-04-20T12:50:15Z</time>
      </trkpt>
      <trkpt lat="47.670969888567924" lon="11.917894100770354">
        <ele>1618.516845703125</ele>
        <time>2013-04-20T12:50:32Z</time>
      </trkpt>
      <trkpt lat="47.670905850827694" lon="11.917893514037132">
        <ele>1618.516845703125</ele>
        <time>2013-04-20T12:50:42Z</time>
      </trkpt>
      <trkpt lat="47.670778445899487" lon="11.917873313650489">
        <ele>1616.59423828125</ele>
        <time>2013-04-20T12:50:55Z</time>
      </trkpt>
      <trkpt lat="47.670636707916856" lon="11.917851520702243">
        <ele>1614.671630859375</ele>
        <time>2013-04-20T12:51:03Z</time>
      </trkpt>
      <trkpt lat="47.670464711263776" lon="11.917792931199074">
        <ele>1612.7490234375</ele>
        <time>2013-04-20T12:51:12Z</time>
      </trkpt>
      <trkpt lat="47.67030855640769" lon="11.917691929265857">
        <ele>1610.826171875</ele>
        <time>2013-04-20T12:51:23Z</time>
      </trkpt>
      <trkpt lat="47.670235298573971" lon="11.917599979788065">
        <ele>1610.826171875</ele>
        <time>2013-04-20T12:51:35Z</time>
      </trkpt>
      <trkpt lat="47.670157011598349" lon="11.917509119957685">
        <ele>1609.86474609375</ele>
        <time>2013-04-20T12:51:47Z</time>
      </trkpt>
      <trkpt lat="47.670007981359959" lon="11.917416248470545">
        <ele>1610.345458984375</ele>
        <time>2013-04-20T12:52:09Z</time>
      </trkpt>
      <trkpt lat="47.669852580875158" lon="11.917400658130646">
        <ele>1611.306884765625</ele>
        <time>2013-04-20T12:52:30Z</time>
      </trkpt>
      <trkpt lat="47.669781837612391" lon="11.917383223772049">
        <ele>1609.86474609375</ele>
        <time>2013-04-20T12:52:36Z</time>
      </trkpt>
      <trkpt lat="47.66972123645246" lon="11.917251376435161">
        <ele>1609.38427734375</ele>
        <time>2013-04-20T12:52:43Z</time>
      </trkpt>
      <trkpt lat="47.669693157076836" lon="11.917155655100942">
        <ele>1609.86474609375</ele>
        <time>2013-04-20T12:52:56Z</time>
      </trkpt>
      <trkpt lat="47.669684691354632" lon="11.91715900786221">
        <ele>1609.86474609375</ele>
        <time>2013-04-20T12:53:02Z</time>
      </trkpt>
      <trkpt lat="47.669606152921915" lon="11.917209466919303">
        <ele>1607.461669921875</ele>
        <time>2013-04-20T12:53:08Z</time>
      </trkpt>
      <trkpt lat="47.669600117951632" lon="11.917273253202438">
        <ele>1606.98095703125</ele>
        <time>2013-04-20T12:53:10Z</time>
      </trkpt>
      <trkpt lat="47.669624257832766" lon="11.917365621775389">
        <ele>1605.058349609375</ele>
        <time>2013-04-20T12:53:14Z</time>
      </trkpt>
      <trkpt lat="47.66956290230155" lon="11.917409123852849">
        <ele>1602.655029296875</ele>
        <time>2013-04-20T12:53:19Z</time>
      </trkpt>
      <trkpt lat="47.669450333341956" lon="11.917333770543337">
        <ele>1599.29052734375</ele>
        <time>2013-04-20T12:53:23Z</time>
      </trkpt>
      <trkpt lat="47.669408926740289" lon="11.917339470237494">
        <ele>1597.8486328125</ele>
        <time>2013-04-20T12:53:25Z</time>
      </trkpt>
      <trkpt lat="47.669397778809071" lon="11.917386576533318">
        <ele>1597.367919921875</ele>
        <time>2013-04-20T12:53:30Z</time>
      </trkpt>
      <trkpt lat="47.669354360550642" lon="11.917405603453517">
        <ele>1594.003173828125</ele>
        <time>2013-04-20T12:53:34Z</time>
      </trkpt>
      <trkpt lat="47.669253190979362" lon="11.917280964553356">
        <ele>1589.67724609375</ele>
        <time>2013-04-20T12:53:40Z</time>
      </trkpt>
      <trkpt lat="47.669211868196726" lon="11.917355060577393">
        <ele>1587.27392578125</ele>
        <time>2013-04-20T12:53:43Z</time>
      </trkpt>
      <trkpt lat="47.669200133532286" lon="11.917388420552015">
        <ele>1587.27392578125</ele>
        <time>2013-04-20T12:53:44Z</time>
      </trkpt>
      <trkpt lat="47.669164258986712" lon="11.9174116384238">
        <ele>1583.909423828125</ele>
        <time>2013-04-20T12:53:46Z</time>
      </trkpt>
      <trkpt lat="47.669045487418771" lon="11.917352462187409">
        <ele>1579.1025390625</ele>
        <time>2013-04-20T12:53:51Z</time>
      </trkpt>
      <trkpt lat="47.668972983956337" lon="11.917438460513949">
        <ele>1575.25732421875</ele>
        <time>2013-04-20T12:53:54Z</time>
      </trkpt>
      <trkpt lat="47.668976169079542" lon="11.917428066954017">
        <ele>1573.8154296875</ele>
        <time>2013-04-20T12:53:55Z</time>
      </trkpt>
      <trkpt lat="47.668938869610429" lon="11.917400490492582">
        <ele>1574.296142578125</ele>
        <time>2013-04-20T12:53:57Z</time>
      </trkpt>
      <trkpt lat="47.668858990073204" lon="11.917294878512621">
        <ele>1570.931640625</ele>
        <time>2013-04-20T12:54:03Z</time>
      </trkpt>
      <trkpt lat="47.668810458853841" lon="11.917293453589082">
        <ele>1566.605712890625</ele>
        <time>2013-04-20T12:54:05Z</time>
      </trkpt>
      <trkpt lat="47.668721359223127" lon="11.917285574600101">
        <ele>1563.721435546875</ele>
        <time>2013-04-20T12:54:08Z</time>
      </trkpt>
      <trkpt lat="47.668671570718288" lon="11.917226566001773">
        <ele>1562.279541015625</ele>
        <time>2013-04-20T12:54:10Z</time>
      </trkpt>
      <trkpt lat="47.668564701452851" lon="11.917205275967717">
        <ele>1556.992431640625</ele>
        <time>2013-04-20T12:54:14Z</time>
      </trkpt>
      <trkpt lat="47.668495466932654" lon="11.917238216847181">
        <ele>1551.705322265625</ele>
        <time>2013-04-20T12:54:16Z</time>
      </trkpt>
      <trkpt lat="47.668458921834826" lon="11.917256237939">
        <ele>1551.705322265625</ele>
        <time>2013-04-20T12:54:17Z</time>
      </trkpt>
      <trkpt lat="47.668385915458202" lon="11.917304266244173">
        <ele>1547.85986328125</ele>
        <time>2013-04-20T12:54:19Z</time>
      </trkpt>
      <trkpt lat="47.668300168588758" lon="11.917299991473556">
        <ele>1545.45654296875</ele>
        <time>2013-04-20T12:54:22Z</time>
      </trkpt>
      <trkpt lat="47.668301593512297" lon="11.917244670912623">
        <ele>1544.4951171875</ele>
        <time>2013-04-20T12:54:29Z</time>
      </trkpt>
      <trkpt lat="47.668306287378073" lon="11.917249197140336">
        <ele>1544.975830078125</ele>
        <time>2013-04-20T12:54:37Z</time>
      </trkpt>
      <trkpt lat="47.668258929625154" lon="11.91725674085319">
        <ele>1543.05322265625</ele>
        <time>2013-04-20T12:54:41Z</time>
      </trkpt>
      <trkpt lat="47.668214086443186" lon="11.917295884341002">
        <ele>1542.092041015625</ele>
        <time>2013-04-20T12:54:43Z</time>
      </trkpt>
      <trkpt lat="47.668122220784426" lon="11.917374087497592">
        <ele>1540.64990234375</ele>
        <time>2013-04-20T12:54:47Z</time>
      </trkpt>
      <trkpt lat="47.668068744242191" lon="11.917392024770379">
        <ele>1539.688720703125</ele>
        <time>2013-04-20T12:54:49Z</time>
      </trkpt>
      <trkpt lat="47.667944440618157" lon="11.917414655908942">
        <ele>1536.32421875</ele>
        <time>2013-04-20T12:54:53Z</time>
      </trkpt>
      <trkpt lat="47.667910074815154" lon="11.917419014498591">
        <ele>1535.843505859375</ele>
        <time>2013-04-20T12:54:54Z</time>
      </trkpt>
      <trkpt lat="47.667708657681942" lon="11.917396215721965">
        <ele>1532.47900390625</ele>
        <time>2013-04-20T12:55:01Z</time>
      </trkpt>
      <trkpt lat="47.667685188353062" lon="11.9173788651824">
        <ele>1532.47900390625</ele>
        <time>2013-04-20T12:55:02Z</time>
      </trkpt>
      <trkpt lat="47.66754143871367" lon="11.917217932641506">
        <ele>1529.5947265625</ele>
        <time>2013-04-20T12:55:09Z</time>
      </trkpt>
      <trkpt lat="47.667467091232538" lon="11.917135454714298">
        <ele>1527.191650390625</ele>
        <time>2013-04-20T12:55:12Z</time>
      </trkpt>
      <trkpt lat="47.667384445667267" lon="11.917016934603453">
        <ele>1522.86572265625</ele>
        <time>2013-04-20T12:55:15Z</time>
      </trkpt>
      <trkpt lat="47.667346056550741" lon="11.916861031204462">
        <ele>1522.86572265625</ele>
        <time>2013-04-20T12:55:19Z</time>
      </trkpt>
      <trkpt lat="47.667364329099655" lon="11.916871760040522">
        <ele>1521.904296875</ele>
        <time>2013-04-20T12:55:34Z</time>
      </trkpt>
      <trkpt lat="47.667326610535383" lon="11.916824989020824">
        <ele>1519.0205078125</ele>
        <time>2013-04-20T12:55:38Z</time>
      </trkpt>
      <trkpt lat="47.66722971573472" lon="11.916701355949044">
        <ele>1514.213623046875</ele>
        <time>2013-04-20T12:55:41Z</time>
      </trkpt>
      <trkpt lat="47.667174646630883" lon="11.916594486683607">
        <ele>1513.25244140625</ele>
        <time>2013-04-20T12:55:43Z</time>
      </trkpt>
      <trkpt lat="47.667100299149752" lon="11.916417377069592">
        <ele>1509.8876953125</ele>
        <time>2013-04-20T12:55:48Z</time>
      </trkpt>
      <trkpt lat="47.667056545615196" lon="11.916327020153403">
        <ele>1507.00390625</ele>
        <time>2013-04-20T12:55:51Z</time>
      </trkpt>
      <trkpt lat="47.666985802352428" lon="11.916254684329033">
        <ele>1501.716796875</ele>
        <time>2013-04-20T12:55:54Z</time>
      </trkpt>
      <trkpt lat="47.666940959170461" lon="11.916250577196479">
        <ele>1501.236083984375</ele>
        <time>2013-04-20T12:55:55Z</time>
      </trkpt>
      <trkpt lat="47.666691178455949" lon="11.916366666555405">
        <ele>1497.871337890625</ele>
        <time>2013-04-20T12:55:59Z</time>
      </trkpt>
      <trkpt lat="47.666714144870639" lon="11.916372617706656">
        <ele>1497.871337890625</ele>
        <time>2013-04-20T12:56:04Z</time>
      </trkpt>
      <trkpt lat="47.666718335822225" lon="11.916370103135705">
        <ele>1496.429443359375</ele>
        <time>2013-04-20T12:56:14Z</time>
      </trkpt>
      <trkpt lat="47.666698638349771" lon="11.916254768148065">
        <ele>1494.506591796875</ele>
        <time>2013-04-20T12:56:18Z</time>
      </trkpt>
      <trkpt lat="47.666711881756783" lon="11.916071707382798">
        <ele>1492.584228515625</ele>
        <time>2013-04-20T12:56:21Z</time>
      </trkpt>
      <trkpt lat="47.666711127385497" lon="11.915975818410516">
        <ele>1491.14208984375</ele>
        <time>2013-04-20T12:56:23Z</time>
      </trkpt>
      <trkpt lat="47.666700482368469" lon="11.915892502292991">
        <ele>1490.180908203125</ele>
        <time>2013-04-20T12:56:25Z</time>
      </trkpt>
      <trkpt lat="47.666605766862631" lon="11.915861908346415">
        <ele>1486.335693359375</ele>
        <time>2013-04-20T12:56:29Z</time>
      </trkpt>
      <trkpt lat="47.666496466845274" lon="11.915885712951422">
        <ele>1482.490234375</ele>
        <time>2013-04-20T12:56:33Z</time>
      </trkpt>
      <trkpt lat="47.666480122134089" lon="11.915837349370122">
        <ele>1483.451416015625</ele>
        <time>2013-04-20T12:56:34Z</time>
      </trkpt>
      <trkpt lat="47.6664381287992" lon="11.915775490924716">
        <ele>1482.009521484375</ele>
        <time>2013-04-20T12:56:36Z</time>
      </trkpt>
      <trkpt lat="47.666331762447953" lon="11.915797870606184">
        <ele>1478.64501953125</ele>
        <time>2013-04-20T12:56:40Z</time>
      </trkpt>
      <trkpt lat="47.666275855153799" lon="11.915785130113363">
        <ele>1477.68359375</ele>
        <time>2013-04-20T12:56:43Z</time>
      </trkpt>
      <trkpt lat="47.666222043335438" lon="11.915656803175807">
        <ele>1474.319091796875</ele>
        <time>2013-04-20T12:56:47Z</time>
      </trkpt>
      <trkpt lat="47.666230006143451" lon="11.915600728243589">
        <ele>1473.83837890625</ele>
        <time>2013-04-20T12:56:48Z</time>
      </trkpt>
      <trkpt lat="47.666249955072999" lon="11.915422026067972">
        <ele>1472.396484375</ele>
        <time>2013-04-20T12:56:54Z</time>
      </trkpt>
      <trkpt lat="47.666190695017576" lon="11.915211891755462">
        <ele>1469.5126953125</ele>
        <time>2013-04-20T12:57:01Z</time>
      </trkpt>
      <trkpt lat="47.666172003373504" lon="11.91517224535346">
        <ele>1469.5126953125</ele>
        <time>2013-04-20T12:57:02Z</time>
      </trkpt>
      <trkpt lat="47.666106792166829" lon="11.915035368874669">
        <ele>1465.667236328125</ele>
        <time>2013-04-20T12:57:05Z</time>
      </trkpt>
      <trkpt lat="47.666017692536116" lon="11.914851637557149">
        <ele>1462.302490234375</ele>
        <time>2013-04-20T12:57:09Z</time>
      </trkpt>
      <trkpt lat="47.665954912081361" lon="11.914702439680696">
        <ele>1459.899169921875</ele>
        <time>2013-04-20T12:57:12Z</time>
      </trkpt>
      <trkpt lat="47.665907554328442" lon="11.914492305368185">
        <ele>1456.53466796875</ele>
        <time>2013-04-20T12:57:16Z</time>
      </trkpt>
      <trkpt lat="47.665825998410583" lon="11.914256941527128">
        <ele>1453.170166015625</ele>
        <time>2013-04-20T12:57:21Z</time>
      </trkpt>
      <trkpt lat="47.665736898779869" lon="11.914056781679392">
        <ele>1449.805419921875</ele>
        <time>2013-04-20T12:57:26Z</time>
      </trkpt>
      <trkpt lat="47.665676884353161" lon="11.913977237418294">
        <ele>1448.36328125</ele>
        <time>2013-04-20T12:57:28Z</time>
      </trkpt>
      <trkpt lat="47.665549479424953" lon="11.913718990981579">
        <ele>1443.076171875</ele>
        <time>2013-04-20T12:57:33Z</time>
      </trkpt>
      <trkpt lat="47.665523579344153" lon="11.913503324612975">
        <ele>1440.1923828125</ele>
        <time>2013-04-20T12:57:39Z</time>
      </trkpt>
      <trkpt lat="47.665493991225958" lon="11.913241222500801">
        <ele>1436.82763671875</ele>
        <time>2013-04-20T12:57:46Z</time>
      </trkpt>
      <trkpt lat="47.665459206327796" lon="11.912946095690131">
        <ele>1433.462890625</ele>
        <time>2013-04-20T12:57:52Z</time>
      </trkpt>
      <trkpt lat="47.665418889373541" lon="11.912755994126201">
        <ele>1430.098388671875</ele>
        <time>2013-04-20T12:57:55Z</time>
      </trkpt>
      <trkpt lat="47.665377147495747" lon="11.912621213123202">
        <ele>1427.214599609375</ele>
        <time>2013-04-20T12:57:57Z</time>
      </trkpt>
      <trkpt lat="47.665338590741158" lon="11.91241099499166">
        <ele>1422.888671875</ele>
        <time>2013-04-20T12:58:00Z</time>
      </trkpt>
      <trkpt lat="47.665324928238988" lon="11.912209913134575">
        <ele>1419.52392578125</ele>
        <time>2013-04-20T12:58:03Z</time>
      </trkpt>
      <trkpt lat="47.665301626548171" lon="11.912012184038758">
        <ele>1415.197998046875</ele>
        <time>2013-04-20T12:58:06Z</time>
      </trkpt>
      <trkpt lat="47.665274972096086" lon="11.911807665601373">
        <ele>1412.31396484375</ele>
        <time>2013-04-20T12:58:09Z</time>
      </trkpt>
      <trkpt lat="47.66525418497622" lon="11.911592585965991">
        <ele>1408.46875</ele>
        <time>2013-04-20T12:58:12Z</time>
      </trkpt>
      <trkpt lat="47.665227027609944" lon="11.911338279023767">
        <ele>1404.14306640625</ele>
        <time>2013-04-20T12:58:16Z</time>
      </trkpt>
      <trkpt lat="47.665197355672717" lon="11.91112102009356">
        <ele>1401.739501953125</ele>
        <time>2013-04-20T12:58:20Z</time>
      </trkpt>
      <trkpt lat="47.665174221619964" lon="11.910963105037808">
        <ele>1398.374755859375</ele>
        <time>2013-04-20T12:58:23Z</time>
      </trkpt>
      <trkpt lat="47.66512862406671" lon="11.910770069807768">
        <ele>1394.529541015625</ele>
        <time>2013-04-20T12:58:27Z</time>
      </trkpt>
      <trkpt lat="47.665113117545843" lon="11.910748779773712">
        <ele>1395.01025390625</ele>
        <time>2013-04-20T12:58:28Z</time>
      </trkpt>
      <trkpt lat="47.665100460872054" lon="11.910774176940322">
        <ele>1395.01025390625</ele>
        <time>2013-04-20T12:58:35Z</time>
      </trkpt>
      <trkpt lat="47.665100377053022" lon="11.910771578550339">
        <ele>1395.01025390625</ele>
        <time>2013-04-20T12:58:41Z</time>
      </trkpt>
      <trkpt lat="47.665070202201605" lon="11.910684993490577">
        <ele>1393.568359375</ele>
        <time>2013-04-20T12:58:45Z</time>
      </trkpt>
      <trkpt lat="47.665034579113126" lon="11.910446025431156">
        <ele>1387.80029296875</ele>
        <time>2013-04-20T12:58:49Z</time>
      </trkpt>
      <trkpt lat="47.664992669597268" lon="11.910207225009799">
        <ele>1383.955078125</ele>
        <time>2013-04-20T12:58:52Z</time>
      </trkpt>
      <trkpt lat="47.664952436462045" lon="11.909949397668242">
        <ele>1379.1484375</ele>
        <time>2013-04-20T12:58:55Z</time>
      </trkpt>
      <trkpt lat="47.664912706241012" lon="11.909688301384449">
        <ele>1376.2646484375</ele>
        <time>2013-04-20T12:58:59Z</time>
      </trkpt>
      <trkpt lat="47.664846321567893" lon="11.909475401043892">
        <ele>1373.861328125</ele>
        <time>2013-04-20T12:59:06Z</time>
      </trkpt>
      <trkpt lat="47.664768537506461" lon="11.909328550100327">
        <ele>1371.457763671875</ele>
        <time>2013-04-20T12:59:15Z</time>
      </trkpt>
      <trkpt lat="47.664689244702458" lon="11.909246072173119">
        <ele>1369.535400390625</ele>
        <time>2013-04-20T12:59:18Z</time>
      </trkpt>
      <trkpt lat="47.664669211953878" lon="11.909232158213854">
        <ele>1370.015869140625</ele>
        <time>2013-04-20T12:59:19Z</time>
      </trkpt>
      <trkpt lat="47.664530575275421" lon="11.909234169870615">
        <ele>1368.573974609375</ele>
        <time>2013-04-20T12:59:32Z</time>
      </trkpt>
      <trkpt lat="47.664382886141539" lon="11.909205755218863">
        <ele>1367.612548828125</ele>
        <time>2013-04-20T12:59:47Z</time>
      </trkpt>
      <trkpt lat="47.664209632202983" lon="11.909118415787816">
        <ele>1367.132080078125</ele>
        <time>2013-04-20T13:00:04Z</time>
      </trkpt>
      <trkpt lat="47.664085244759917" lon="11.909203575924039">
        <ele>1366.170654296875</ele>
        <time>2013-04-20T13:00:11Z</time>
      </trkpt>
      <trkpt lat="47.663905201479793" lon="11.909419158473611">
        <ele>1365.20947265625</ele>
        <time>2013-04-20T13:00:23Z</time>
      </trkpt>
      <trkpt lat="47.663790788501501" lon="11.90967220813036">
        <ele>1365.20947265625</ele>
        <time>2013-04-20T13:00:35Z</time>
      </trkpt>
      <trkpt lat="47.663749130442739" lon="11.909893825650215">
        <ele>1362.325439453125</ele>
        <time>2013-04-20T13:00:44Z</time>
      </trkpt>
      <trkpt lat="47.663696659728885" lon="11.910165064036846">
        <ele>1359.922119140625</ele>
        <time>2013-04-20T13:00:50Z</time>
      </trkpt>
      <trkpt lat="47.663622563704848" lon="11.910379305481911">
        <ele>1357.038330078125</ele>
        <time>2013-04-20T13:00:59Z</time>
      </trkpt>
      <trkpt lat="47.663621725514531" lon="11.910402523353696">
        <ele>1357.51904296875</ele>
        <time>2013-04-20T13:01:06Z</time>
      </trkpt>
      <trkpt lat="47.663624323904514" lon="11.910402858629823">
        <ele>1356.5576171875</ele>
        <time>2013-04-20T13:01:13Z</time>
      </trkpt>
      <trkpt lat="47.663624910637736" lon="11.910394309088588">
        <ele>1358.480224609375</ele>
        <time>2013-04-20T13:01:15Z</time>
      </trkpt>
      <trkpt lat="47.663618037477136" lon="11.91039590165019">
        <ele>1357.999755859375</ele>
        <time>2013-04-20T13:01:22Z</time>
      </trkpt>
      <trkpt lat="47.663609236478806" lon="11.910472847521305">
        <ele>1356.5576171875</ele>
        <time>2013-04-20T13:01:26Z</time>
      </trkpt>
      <trkpt lat="47.663535894826055" lon="11.910667894408107">
        <ele>1355.59619140625</ele>
        <time>2013-04-20T13:01:39Z</time>
      </trkpt>
      <trkpt lat="47.663526171818376" lon="11.91070418804884">
        <ele>1355.59619140625</ele>
        <time>2013-04-20T13:01:45Z</time>
      </trkpt>
      <trkpt lat="47.663526926189661" lon="11.910705864429474">
        <ele>1354.634765625</ele>
        <time>2013-04-20T13:01:49Z</time>
      </trkpt>
      <trkpt lat="47.663422571495175" lon="11.910871574655175">
        <ele>1354.634765625</ele>
        <time>2013-04-20T13:02:00Z</time>
      </trkpt>
      <trkpt lat="47.663265075534582" lon="11.911112973466516">
        <ele>1352.712158203125</ele>
        <time>2013-04-20T13:02:09Z</time>
      </trkpt>
      <trkpt lat="47.663202797994018" lon="11.911156894639134">
        <ele>1351.7509765625</ele>
        <time>2013-04-20T13:02:17Z</time>
      </trkpt>
      <trkpt lat="47.663075476884842" lon="11.911201737821102">
        <ele>1351.270263671875</ele>
        <time>2013-04-20T13:02:29Z</time>
      </trkpt>
      <trkpt lat="47.662926027551293" lon="11.911282371729612">
        <ele>1350.30908203125</ele>
        <time>2013-04-20T13:02:39Z</time>
      </trkpt>
      <trkpt lat="47.662827121093869" lon="11.911269715055823">
        <ele>1350.30908203125</ele>
        <time>2013-04-20T13:02:51Z</time>
      </trkpt>
      <trkpt lat="47.662797532975674" lon="11.911085732281208">
        <ele>1345.50244140625</ele>
        <time>2013-04-20T13:02:55Z</time>
      </trkpt>
      <trkpt lat="47.662781272083521" lon="11.910903174430132">
        <ele>1342.61865234375</ele>
        <time>2013-04-20T13:02:57Z</time>
      </trkpt>
      <trkpt lat="47.662749923765659" lon="11.910690609365702">
        <ele>1340.21533203125</ele>
        <time>2013-04-20T13:03:00Z</time>
      </trkpt>
      <trkpt lat="47.662717150524259" lon="11.9105214625597">
        <ele>1336.850341796875</ele>
        <time>2013-04-20T13:03:04Z</time>
      </trkpt>
      <trkpt lat="47.662669625133276" lon="11.910330858081579">
        <ele>1334.927978515625</ele>
        <time>2013-04-20T13:03:12Z</time>
      </trkpt>
      <trkpt lat="47.662625033408403" lon="11.910165315493941">
        <ele>1334.447265625</ele>
        <time>2013-04-20T13:03:19Z</time>
      </trkpt>
      <trkpt lat="47.662564432248473" lon="11.909911846742034">
        <ele>1331.082763671875</ele>
        <time>2013-04-20T13:03:25Z</time>
      </trkpt>
      <trkpt lat="47.662542052567005" lon="11.909803636372089">
        <ele>1330.121337890625</ele>
        <time>2013-04-20T13:03:27Z</time>
      </trkpt>
      <trkpt lat="47.662487905472517" lon="11.909602638334036">
        <ele>1327.718017578125</ele>
        <time>2013-04-20T13:03:32Z</time>
      </trkpt>
      <trkpt lat="47.662429483607411" lon="11.909343218430877">
        <ele>1325.314697265625</ele>
        <time>2013-04-20T13:03:38Z</time>
      </trkpt>
      <trkpt lat="47.66244406811893" lon="11.909108273684978">
        <ele>1323.39208984375</ele>
        <time>2013-04-20T13:03:42Z</time>
      </trkpt>
      <trkpt lat="47.662452198565006" lon="11.908840052783489">
        <ele>1322.4306640625</ele>
        <time>2013-04-20T13:03:49Z</time>
      </trkpt>
      <trkpt lat="47.662456557154655" lon="11.908691693097353">
        <ele>1320.508056640625</ele>
        <time>2013-04-20T13:03:52Z</time>
      </trkpt>
      <trkpt lat="47.662461083382368" lon="11.908205794170499">
        <ele>1318.104736328125</ele>
        <time>2013-04-20T13:04:04Z</time>
      </trkpt>
      <trkpt lat="47.662473069503903" lon="11.907900022342801">
        <ele>1317.6240234375</ele>
        <time>2013-04-20T13:04:14Z</time>
      </trkpt>
      <trkpt lat="47.66249536536634" lon="11.907462403178215">
        <ele>1316.18212890625</ele>
        <time>2013-04-20T13:04:25Z</time>
      </trkpt>
      <trkpt lat="47.662504501640797" lon="11.907133162021637">
        <ele>1315.220947265625</ele>
        <time>2013-04-20T13:04:34Z</time>
      </trkpt>
      <trkpt lat="47.662506010383368" lon="11.907014390453696">
        <ele>1314.740234375</ele>
        <time>2013-04-20T13:04:43Z</time>
      </trkpt>
      <trkpt lat="47.662511207163334" lon="11.906867958605289">
        <ele>1316.18212890625</ele>
        <time>2013-04-20T13:04:57Z</time>
      </trkpt>
      <trkpt lat="47.662508273497224" lon="11.906655728816986">
        <ele>1316.662841796875</ele>
        <time>2013-04-20T13:05:14Z</time>
      </trkpt>
      <trkpt lat="47.662505507469177" lon="11.906497646123171">
        <ele>1317.1435546875</ele>
        <time>2013-04-20T13:05:26Z</time>
      </trkpt>
      <trkpt lat="47.662504585459828" lon="11.906301928684115">
        <ele>1316.662841796875</ele>
        <time>2013-04-20T13:05:39Z</time>
      </trkpt>
      <trkpt lat="47.66250173561275" lon="11.906089950352907">
        <ele>1317.1435546875</ele>
        <time>2013-04-20T13:05:52Z</time>
      </trkpt>
      <trkpt lat="47.662507183849812" lon="11.90581594593823">
        <ele>1316.18212890625</ele>
        <time>2013-04-20T13:06:07Z</time>
      </trkpt>
      <trkpt lat="47.662502992898226" lon="11.905540265142918">
        <ele>1314.740234375</ele>
        <time>2013-04-20T13:06:21Z</time>
      </trkpt>
      <trkpt lat="47.662508357316256" lon="11.90538989380002">
        <ele>1315.220947265625</ele>
        <time>2013-04-20T13:06:30Z</time>
      </trkpt>
      <trkpt lat="47.662524282932281" lon="11.905238768085837">
        <ele>1315.70166015625</ele>
        <time>2013-04-20T13:06:42Z</time>
      </trkpt>
      <trkpt lat="47.662539286538959" lon="11.90501119941473">
        <ele>1314.740234375</ele>
        <time>2013-04-20T13:06:58Z</time>
      </trkpt>
      <trkpt lat="47.662556385621428" lon="11.904798466712236">
        <ele>1315.220947265625</ele>
        <time>2013-04-20T13:07:12Z</time>
      </trkpt>
      <trkpt lat="47.662589997053146" lon="11.904504345729947">
        <ele>1314.740234375</ele>
        <time>2013-04-20T13:07:28Z</time>
      </trkpt>
      <trkpt lat="47.6626165676862" lon="11.904199998825788">
        <ele>1312.817626953125</ele>
        <time>2013-04-20T13:07:39Z</time>
      </trkpt>
      <trkpt lat="47.662663087248802" lon="11.903766486793756">
        <ele>1310.414306640625</ele>
        <time>2013-04-20T13:07:51Z</time>
      </trkpt>
      <trkpt lat="47.66268840059638" lon="11.903571020811796">
        <ele>1308.01123046875</ele>
        <time>2013-04-20T13:07:57Z</time>
      </trkpt>
      <trkpt lat="47.662737770006061" lon="11.903124852105975">
        <ele>1306.088134765625</ele>
        <time>2013-04-20T13:08:09Z</time>
      </trkpt>
      <trkpt lat="47.662760317325592" lon="11.902972972020507">
        <ele>1306.088134765625</ele>
        <time>2013-04-20T13:08:16Z</time>
      </trkpt>
      <trkpt lat="47.662786468863487" lon="11.902738949283957">
        <ele>1305.607666015625</ele>
        <time>2013-04-20T13:08:31Z</time>
      </trkpt>
      <trkpt lat="47.662802562117577" lon="11.902504926547408">
        <ele>1304.646240234375</ele>
        <time>2013-04-20T13:08:45Z</time>
      </trkpt>
      <trkpt lat="47.662824019789696" lon="11.902276938781142">
        <ele>1304.646240234375</ele>
        <time>2013-04-20T13:08:58Z</time>
      </trkpt>
      <trkpt lat="47.662862073630095" lon="11.902110390365124">
        <ele>1305.126953125</ele>
        <time>2013-04-20T13:09:11Z</time>
      </trkpt>
      <trkpt lat="47.662873389199376" lon="11.901917271316051">
        <ele>1305.607666015625</ele>
        <time>2013-04-20T13:09:23Z</time>
      </trkpt>
      <trkpt lat="47.662896774709225" lon="11.90174326300621">
        <ele>1305.607666015625</ele>
        <time>2013-04-20T13:09:35Z</time>
      </trkpt>
      <trkpt lat="47.662914041429758" lon="11.901463391259313">
        <ele>1305.607666015625</ele>
        <time>2013-04-20T13:09:53Z</time>
      </trkpt>
      <trkpt lat="47.662918148562312" lon="11.901418883353472">
        <ele>1305.607666015625</ele>
        <time>2013-04-20T13:10:00Z</time>
      </trkpt>
      <trkpt lat="47.662931559607387" lon="11.901158625259995">
        <ele>1305.607666015625</ele>
        <time>2013-04-20T13:10:15Z</time>
      </trkpt>
      <trkpt lat="47.662951005622745" lon="11.900911191478372">
        <ele>1306.088134765625</ele>
        <time>2013-04-20T13:10:31Z</time>
      </trkpt>
      <trkpt lat="47.662968691438437" lon="11.900709858164191">
        <ele>1306.56884765625</ele>
        <time>2013-04-20T13:10:44Z</time>
      </trkpt>
      <trkpt lat="47.662979755550623" lon="11.900498298928142">
        <ele>1306.56884765625</ele>
        <time>2013-04-20T13:10:57Z</time>
      </trkpt>
      <trkpt lat="47.662999955937266" lon="11.900295037776232">
        <ele>1305.607666015625</ele>
        <time>2013-04-20T13:11:10Z</time>
      </trkpt>
      <trkpt lat="47.663025017827749" lon="11.900130584836006">
        <ele>1306.088134765625</ele>
        <time>2013-04-20T13:11:23Z</time>
      </trkpt>
      <trkpt lat="47.663049744442105" lon="11.900028409436345">
        <ele>1308.01123046875</ele>
        <time>2013-04-20T13:11:31Z</time>
      </trkpt>
      <trkpt lat="47.663093917071819" lon="11.899882396683097">
        <ele>1308.01123046875</ele>
        <time>2013-04-20T13:11:44Z</time>
      </trkpt>
      <trkpt lat="47.663141945376992" lon="11.899746023118496">
        <ele>1308.972412109375</ele>
        <time>2013-04-20T13:11:56Z</time>
      </trkpt>
      <trkpt lat="47.663210593163967" lon="11.899577127769589">
        <ele>1308.972412109375</ele>
        <time>2013-04-20T13:12:12Z</time>
      </trkpt>
      <trkpt lat="47.663285275921226" lon="11.899457182735205">
        <ele>1308.49169921875</ele>
        <time>2013-04-20T13:12:25Z</time>
      </trkpt>
      <trkpt lat="47.663357527926564" lon="11.899328269064426">
        <ele>1309.453125</ele>
        <time>2013-04-20T13:12:38Z</time>
      </trkpt>
      <trkpt lat="47.66343648545444" lon="11.899230284616351">
        <ele>1309.93359375</ele>
        <time>2013-04-20T13:12:51Z</time>
      </trkpt>
      <trkpt lat="47.663544025272131" lon="11.899074548855424">
        <ele>1310.89501953125</ele>
        <time>2013-04-20T13:13:07Z</time>
      </trkpt>
      <trkpt lat="47.663586353883147" lon="11.899025682359934">
        <ele>1310.89501953125</ele>
        <time>2013-04-20T13:13:12Z</time>
      </trkpt>
      <trkpt lat="47.663624072447419" lon="11.898973798379302">
        <ele>1311.375732421875</ele>
        <time>2013-04-20T13:13:19Z</time>
      </trkpt>
      <trkpt lat="47.66364561393857" lon="11.898956950753927">
        <ele>1310.89501953125</ele>
        <time>2013-04-20T13:13:23Z</time>
      </trkpt>
      <trkpt lat="47.663757596164942" lon="11.898820074275136">
        <ele>1310.414306640625</ele>
        <time>2013-04-20T13:13:38Z</time>
      </trkpt>
      <trkpt lat="47.663860442116857" lon="11.898663584142923">
        <ele>1309.453125</ele>
        <time>2013-04-20T13:13:51Z</time>
      </trkpt>
      <trkpt lat="47.663984326645732" lon="11.898476835340261">
        <ele>1307.049560546875</ele>
        <time>2013-04-20T13:13:59Z</time>
      </trkpt>
      <trkpt lat="47.664054566994309" lon="11.898315148428082">
        <ele>1305.126953125</ele>
        <time>2013-04-20T13:14:03Z</time>
      </trkpt>
      <trkpt lat="47.66413226723671" lon="11.89816989004612">
        <ele>1303.204345703125</ele>
        <time>2013-04-20T13:14:07Z</time>
      </trkpt>
      <trkpt lat="47.664249194785953" lon="11.897935029119253">
        <ele>1299.83984375</ele>
        <time>2013-04-20T13:14:13Z</time>
      </trkpt>
      <trkpt lat="47.664318764582276" lon="11.897737886756659">
        <ele>1296.955810546875</ele>
        <time>2013-04-20T13:14:17Z</time>
      </trkpt>
      <trkpt lat="47.664332007989287" lon="11.897683823481202">
        <ele>1295.033203125</ele>
        <time>2013-04-20T13:14:18Z</time>
      </trkpt>
      <trkpt lat="47.664451785385609" lon="11.897524986416101">
        <ele>1290.70703125</ele>
        <time>2013-04-20T13:14:22Z</time>
      </trkpt>
      <trkpt lat="47.664530072361231" lon="11.897409483790398">
        <ele>1285.900634765625</ele>
        <time>2013-04-20T13:14:25Z</time>
      </trkpt>
      <trkpt lat="47.664543902501464" lon="11.897348128259182">
        <ele>1286.86181640625</ele>
        <time>2013-04-20T13:14:26Z</time>
      </trkpt>
      <trkpt lat="47.664564857259393" lon="11.897226171568036">
        <ele>1283.497314453125</ele>
        <time>2013-04-20T13:14:28Z</time>
      </trkpt>
      <trkpt lat="47.664597881957889" lon="11.897119972854853">
        <ele>1279.652099609375</ele>
        <time>2013-04-20T13:14:30Z</time>
      </trkpt>
      <trkpt lat="47.664632750675082" lon="11.897015701979399">
        <ele>1276.28759765625</ele>
        <time>2013-04-20T13:14:32Z</time>
      </trkpt>
      <trkpt lat="47.664667619392276" lon="11.896914951503277">
        <ele>1270.51953125</ele>
        <time>2013-04-20T13:14:34Z</time>
      </trkpt>
      <trkpt lat="47.664687065407634" lon="11.896866504102945">
        <ele>1271.000244140625</ele>
        <time>2013-04-20T13:14:35Z</time>
      </trkpt>
      <trkpt lat="47.66473132185638" lon="11.896771201863885">
        <ele>1266.193603515625</ele>
        <time>2013-04-20T13:14:37Z</time>
      </trkpt>
      <trkpt lat="47.664743643254042" lon="11.896722251549363">
        <ele>1266.193603515625</ele>
        <time>2013-04-20T13:14:38Z</time>
      </trkpt>
      <trkpt lat="47.664750097319484" lon="11.896671876311302">
        <ele>1262.348388671875</ele>
        <time>2013-04-20T13:14:39Z</time>
      </trkpt>
      <trkpt lat="47.664757138118148" lon="11.896622087806463">
        <ele>1263.309814453125</ele>
        <time>2013-04-20T13:14:40Z</time>
      </trkpt>
      <trkpt lat="47.664775578305125" lon="11.896519577130675">
        <ele>1259.94482421875</ele>
        <time>2013-04-20T13:14:42Z</time>
      </trkpt>
      <trkpt lat="47.664785720407963" lon="11.896463837474585">
        <ele>1258.0224609375</ele>
        <time>2013-04-20T13:14:43Z</time>
      </trkpt>
      <trkpt lat="47.664805082604289" lon="11.896337606012821">
        <ele>1254.17724609375</ele>
        <time>2013-04-20T13:14:45Z</time>
      </trkpt>
      <trkpt lat="47.664828216657043" lon="11.896155970171094">
        <ele>1249.37060546875</ele>
        <time>2013-04-20T13:14:48Z</time>
      </trkpt>
      <trkpt lat="47.664830815047026" lon="11.895978944376111">
        <ele>1247.447998046875</ele>
        <time>2013-04-20T13:14:51Z</time>
      </trkpt>
      <trkpt lat="47.664836347103119" lon="11.895881714299321">
        <ele>1243.6025390625</ele>
        <time>2013-04-20T13:14:52Z</time>
      </trkpt>
      <trkpt lat="47.664852272719145" lon="11.895715165883303">
        <ele>1240.718505859375</ele>
        <time>2013-04-20T13:14:54Z</time>
      </trkpt>
      <trkpt lat="47.664867024868727" lon="11.895648613572121">
        <ele>1239.75732421875</ele>
        <time>2013-04-20T13:14:55Z</time>
      </trkpt>
      <trkpt lat="47.664882363751531" lon="11.895447699353099">
        <ele>1234.950927734375</ele>
        <time>2013-04-20T13:14:58Z</time>
      </trkpt>
      <trkpt lat="47.664821008220315" lon="11.89525181427598">
        <ele>1233.028076171875</ele>
        <time>2013-04-20T13:15:01Z</time>
      </trkpt>
      <trkpt lat="47.66477239318192" lon="11.895195823162794">
        <ele>1231.586181640625</ele>
        <time>2013-04-20T13:15:03Z</time>
      </trkpt>
      <trkpt lat="47.664647502824664" lon="11.895091384649277">
        <ele>1228.702392578125</ele>
        <time>2013-04-20T13:15:09Z</time>
      </trkpt>
      <trkpt lat="47.664628811180592" lon="11.89508032053709">
        <ele>1228.702392578125</ele>
        <time>2013-04-20T13:15:10Z</time>
      </trkpt>
      <trkpt lat="47.664629146456718" lon="11.895072190091014">
        <ele>1227.74072265625</ele>
        <time>2013-04-20T13:15:22Z</time>
      </trkpt>
      <trkpt lat="47.664553793147206" lon="11.895041177049279">
        <ele>1226.298828125</ele>
        <time>2013-04-20T13:15:28Z</time>
      </trkpt>
      <trkpt lat="47.664518086239696" lon="11.895049475133419">
        <ele>1225.818115234375</ele>
        <time>2013-04-20T13:15:36Z</time>
      </trkpt>
      <trkpt lat="47.664435356855392" lon="11.895001111552119">
        <ele>1223.4150390625</ele>
        <time>2013-04-20T13:15:45Z</time>
      </trkpt>
      <trkpt lat="47.664417922496796" lon="11.894994657486677">
        <ele>1223.4150390625</ele>
        <time>2013-04-20T13:15:46Z</time>
      </trkpt>
      <trkpt lat="47.664305856451392" lon="11.894961213693023">
        <ele>1220.05029296875</ele>
        <time>2013-04-20T13:15:52Z</time>
      </trkpt>
      <trkpt lat="47.664288673549891" lon="11.894960375502706">
        <ele>1220.05029296875</ele>
        <time>2013-04-20T13:15:53Z</time>
      </trkpt>
      <trkpt lat="47.6642139069736" lon="11.894968086853623">
        <ele>1217.16650390625</ele>
        <time>2013-04-20T13:15:59Z</time>
      </trkpt>
      <trkpt lat="47.664219103753567" lon="11.894936235621572">
        <ele>1216.205078125</ele>
        <time>2013-04-20T13:16:12Z</time>
      </trkpt>
      <trkpt lat="47.664162442088127" lon="11.894884184002876">
        <ele>1215.243896484375</ele>
        <time>2013-04-20T13:16:19Z</time>
      </trkpt>
      <trkpt lat="47.664054818451405" lon="11.894767675548792">
        <ele>1212.840576171875</ele>
        <time>2013-04-20T13:16:26Z</time>
      </trkpt>
      <trkpt lat="47.663989439606667" lon="11.89468938857317">
        <ele>1212.35986328125</ele>
        <time>2013-04-20T13:16:30Z</time>
      </trkpt>
      <trkpt lat="47.664002263918519" lon="11.894635995849967">
        <ele>1210.43701171875</ele>
        <time>2013-04-20T13:16:32Z</time>
      </trkpt>
      <trkpt lat="47.664069151505828" lon="11.894587632268667">
        <ele>1207.072509765625</ele>
        <time>2013-04-20T13:16:35Z</time>
      </trkpt>
      <trkpt lat="47.664084490388632" lon="11.894534323364496">
        <ele>1205.630615234375</ele>
        <time>2013-04-20T13:16:37Z</time>
      </trkpt>
      <trkpt lat="47.664139391854405" lon="11.894538598135114">
        <ele>1204.669189453125</ele>
        <time>2013-04-20T13:16:41Z</time>
      </trkpt>
      <trkpt lat="47.664214242249727" lon="11.894512865692377">
        <ele>1202.265869140625</ele>
        <time>2013-04-20T13:16:45Z</time>
      </trkpt>
      <trkpt lat="47.664237963035703" lon="11.89450322650373">
        <ele>1201.785400390625</ele>
        <time>2013-04-20T13:16:46Z</time>
      </trkpt>
      <trkpt lat="47.66425933688879" lon="11.894413372501731">
        <ele>1199.382080078125</ele>
        <time>2013-04-20T13:16:49Z</time>
      </trkpt>
      <trkpt lat="47.664245255291462" lon="11.894330056384206">
        <ele>1196.498291015625</ele>
        <time>2013-04-20T13:16:51Z</time>
      </trkpt>
      <trkpt lat="47.664239471778274" lon="11.894290409982204">
        <ele>1196.498291015625</ele>
        <time>2013-04-20T13:16:52Z</time>
      </trkpt>
      <trkpt lat="47.664240729063749" lon="11.894256295636296">
        <ele>1193.13330078125</ele>
        <time>2013-04-20T13:16:53Z</time>
      </trkpt>
      <trkpt lat="47.664252547547221" lon="11.894226456061006">
        <ele>1193.13330078125</ele>
        <time>2013-04-20T13:16:54Z</time>
      </trkpt>
      <trkpt lat="47.664269814267755" lon="11.894163675606251">
        <ele>1189.2880859375</ele>
        <time>2013-04-20T13:16:56Z</time>
      </trkpt>
      <trkpt lat="47.664278028532863" lon="11.894125286489725">
        <ele>1189.768798828125</ele>
        <time>2013-04-20T13:16:57Z</time>
      </trkpt>
      <trkpt lat="47.664278950542212" lon="11.894026296213269">
        <ele>1186.404296875</ele>
        <time>2013-04-20T13:16:59Z</time>
      </trkpt>
      <trkpt lat="47.66428230330348" lon="11.893971562385559">
        <ele>1183.03955078125</ele>
        <time>2013-04-20T13:17:00Z</time>
      </trkpt>
      <trkpt lat="47.664281129837036" lon="11.893917415291071">
        <ele>1183.520263671875</ele>
        <time>2013-04-20T13:17:01Z</time>
      </trkpt>
      <trkpt lat="47.664279453456402" lon="11.893866956233978">
        <ele>1180.636474609375</ele>
        <time>2013-04-20T13:17:02Z</time>
      </trkpt>
      <trkpt lat="47.664289176464081" lon="11.893824124708772">
        <ele>1180.636474609375</ele>
        <time>2013-04-20T13:17:03Z</time>
      </trkpt>
      <trkpt lat="47.664311639964581" lon="11.893744161352515">
        <ele>1176.310302734375</ele>
        <time>2013-04-20T13:17:05Z</time>
      </trkpt>
      <trkpt lat="47.664328655228019" lon="11.893705436959863">
        <ele>1176.791015625</ele>
        <time>2013-04-20T13:17:06Z</time>
      </trkpt>
      <trkpt lat="47.664340557530522" lon="11.893665203824639">
        <ele>1173.426513671875</ele>
        <time>2013-04-20T13:17:07Z</time>
      </trkpt>
      <trkpt lat="47.664356650784612" lon="11.893523130565882">
        <ele>1169.1005859375</ele>
        <time>2013-04-20T13:17:10Z</time>
      </trkpt>
      <trkpt lat="47.664357153698802" lon="11.893469737842679">
        <ele>1169.1005859375</ele>
        <time>2013-04-20T13:17:11Z</time>
      </trkpt>
      <trkpt lat="47.664358243346214" lon="11.893415842205286">
        <ele>1165.736083984375</ele>
        <time>2013-04-20T13:17:12Z</time>
      </trkpt>
      <trkpt lat="47.664356399327517" lon="11.893311068415642">
        <ele>1164.774658203125</ele>
        <time>2013-04-20T13:17:14Z</time>
      </trkpt>
      <trkpt lat="47.664365703240037" lon="11.893233871087432">
        <ele>1161.409912109375</ele>
        <time>2013-04-20T13:17:16Z</time>
      </trkpt>
      <trkpt lat="47.664411971345544" lon="11.89318492077291">
        <ele>1160.448486328125</ele>
        <time>2013-04-20T13:17:18Z</time>
      </trkpt>
      <trkpt lat="47.664467291906476" lon="11.893048798665404">
        <ele>1157.564697265625</ele>
        <time>2013-04-20T13:17:21Z</time>
      </trkpt>
      <trkpt lat="47.664503585547209" lon="11.892944443970919">
        <ele>1155.161376953125</ele>
        <time>2013-04-20T13:17:23Z</time>
      </trkpt>
      <trkpt lat="47.664559492841363" lon="11.892800526693463">
        <ele>1151.316162109375</ele>
        <time>2013-04-20T13:17:26Z</time>
      </trkpt>
      <trkpt lat="47.664568964391947" lon="11.892751911655068">
        <ele>1149.874267578125</ele>
        <time>2013-04-20T13:17:27Z</time>
      </trkpt>
      <trkpt lat="47.664563683792949" lon="11.892651915550232">
        <ele>1149.3935546875</ele>
        <time>2013-04-20T13:17:29Z</time>
      </trkpt>
      <trkpt lat="47.664578184485435" lon="11.892574299126863">
        <ele>1147.470703125</ele>
        <time>2013-04-20T13:17:31Z</time>
      </trkpt>
      <trkpt lat="47.664711540564895" lon="11.892480337992311">
        <ele>1145.0673828125</ele>
        <time>2013-04-20T13:17:35Z</time>
      </trkpt>
      <trkpt lat="47.664725203067064" lon="11.892465585842729">
        <ele>1144.586669921875</ele>
        <time>2013-04-20T13:17:40Z</time>
      </trkpt>
      <trkpt lat="47.664733668789268" lon="11.892456030473113">
        <ele>1145.0673828125</ele>
        <time>2013-04-20T13:17:49Z</time>
      </trkpt>
      <trkpt lat="47.66473869793117" lon="11.892434321343899">
        <ele>1144.586669921875</ele>
        <time>2013-04-20T13:17:54Z</time>
      </trkpt>
      <trkpt lat="47.664816733449697" lon="11.892346814274788">
        <ele>1139.7802734375</ele>
        <time>2013-04-20T13:17:59Z</time>
      </trkpt>
      <trkpt lat="47.664870545268059" lon="11.892306581139565">
        <ele>1135.454345703125</ele>
        <time>2013-04-20T13:18:01Z</time>
      </trkpt>
      <trkpt lat="47.66489015892148" lon="11.892277244478464">
        <ele>1135.93505859375</ele>
        <time>2013-04-20T13:18:02Z</time>
      </trkpt>
      <trkpt lat="47.664941623806953" lon="11.892221253365278">
        <ele>1132.08984375</ele>
        <time>2013-04-20T13:18:04Z</time>
      </trkpt>
      <trkpt lat="47.664966434240341" lon="11.892184792086482">
        <ele>1132.08984375</ele>
        <time>2013-04-20T13:18:05Z</time>
      </trkpt>
      <trkpt lat="47.664997112005949" lon="11.892154365777969">
        <ele>1128.244384765625</ele>
        <time>2013-04-20T13:18:06Z</time>
      </trkpt>
      <trkpt lat="47.665026616305113" lon="11.892114803195">
        <ele>1128.72509765625</ele>
        <time>2013-04-20T13:18:07Z</time>
      </trkpt>
      <trkpt lat="47.665047906339169" lon="11.892003072425723">
        <ele>1125.3603515625</ele>
        <time>2013-04-20T13:18:09Z</time>
      </trkpt>
      <trkpt lat="47.665060563012958" lon="11.891947081312537">
        <ele>1122.4765625</ele>
        <time>2013-04-20T13:18:10Z</time>
      </trkpt>
      <trkpt lat="47.665105238556862" lon="11.891770390793681">
        <ele>1119.112060546875</ele>
        <time>2013-04-20T13:18:13Z</time>
      </trkpt>
      <trkpt lat="47.665147399529815" lon="11.891669305041432">
        <ele>1116.708740234375</ele>
        <time>2013-04-20T13:18:15Z</time>
      </trkpt>
      <trkpt lat="47.66526005230844" lon="11.891565704718232">
        <ele>1112.86328125</ele>
        <time>2013-04-20T13:18:18Z</time>
      </trkpt>
      <trkpt lat="47.665355522185564" lon="11.891378201544285">
        <ele>1110.940673828125</ele>
        <time>2013-04-20T13:18:22Z</time>
      </trkpt>
      <trkpt lat="47.665435988456011" lon="11.891024317592382">
        <ele>1105.1728515625</ele>
        <time>2013-04-20T13:18:27Z</time>
      </trkpt>
      <trkpt lat="47.665499271824956" lon="11.890851901844144">
        <ele>1103.73095703125</ele>
        <time>2013-04-20T13:18:30Z</time>
      </trkpt>
      <trkpt lat="47.665528189390898" lon="11.890763221308589">
        <ele>1103.250244140625</ele>
        <time>2013-04-20T13:18:32Z</time>
      </trkpt>
      <trkpt lat="47.665543779730797" lon="11.89062156714499">
        <ele>1099.40478515625</ele>
        <time>2013-04-20T13:18:35Z</time>
      </trkpt>
      <trkpt lat="47.665598345920444" lon="11.890395674854517">
        <ele>1095.5595703125</ele>
        <time>2013-04-20T13:18:39Z</time>
      </trkpt>
      <trkpt lat="47.665570350363851" lon="11.890196772292256">
        <ele>1093.15625</ele>
        <time>2013-04-20T13:18:45Z</time>
      </trkpt>
      <trkpt lat="47.665550066158175" lon="11.890088813379407">
        <ele>1090.2724609375</ele>
        <time>2013-04-20T13:18:48Z</time>
      </trkpt>
      <trkpt lat="47.665546797215939" lon="11.890055369585752">
        <ele>1088.83056640625</ele>
        <time>2013-04-20T13:18:56Z</time>
      </trkpt>
      <trkpt lat="47.665556352585554" lon="11.890045143663883">
        <ele>1089.791748046875</ele>
        <time>2013-04-20T13:19:10Z</time>
      </trkpt>
      <trkpt lat="47.665543192997575" lon="11.889950763434172">
        <ele>1088.83056640625</ele>
        <time>2013-04-20T13:19:17Z</time>
      </trkpt>
      <trkpt lat="47.66552098095417" lon="11.889863088726997">
        <ele>1088.349853515625</ele>
        <time>2013-04-20T13:19:22Z</time>
      </trkpt>
      <trkpt lat="47.665489464998245" lon="11.889857640489936">
        <ele>1089.31103515625</ele>
        <time>2013-04-20T13:19:29Z</time>
      </trkpt>
      <trkpt lat="47.665484016761184" lon="11.889861496165395">
        <ele>1088.83056640625</ele>
        <time>2013-04-20T13:19:43Z</time>
      </trkpt>
      <trkpt lat="47.665492314845324" lon="11.88987105153501">
        <ele>1089.31103515625</ele>
        <time>2013-04-20T13:19:51Z</time>
      </trkpt>
      <trkpt lat="47.66548384912312" lon="11.889875158667564">
        <ele>1087.869140625</ele>
        <time>2013-04-20T13:20:02Z</time>
      </trkpt>
    </trkseg>
  </trk>

</gpx>
